M I D A S
Marine Information and Data Acquisition System
Tripno 1737 of the Zeeleeuw from 2009-07-23 07:29:28 to 2009-07-23 14:44:42
Back to CruiseResearch ActivitiesStationsMapUnderway DataData graphs

EquipmentUnitsComment
TimeDGPSUTC
LatitudeDGPSDM.mWGS84
LongitudeDGPSDM.mWGS84
TemperatureSBE03/SBE38deg celciusITS90
ConductivitySBE21S/mITS90
SalinitySBE21 Practical Salinity Units
ChlorophylAChelsea fluorimeterg/lCalibrated in Aceton
Missing or incorrect values are displayed as -999
Sea surface data collected by the RV Zeeleeuw from 2009-07-23 07:24:28 to 2009-07-23 14:51:59
                                                                                    Next 1000 lines
Time Latitude Longitude Temperature Conductivity Salinity ChlorophylA
2009-07-23 07:24:38 51°13.663 2°55.956 22.1496 2.353067 15.721666 31.80369
2009-07-23 07:24:43 51°13.664 2°55.954 22.1062 2.353067 15.721948 31.80369
2009-07-23 07:24:47 51°13.665 2°55.951 22.1365 2.353067 15.721666 31.80369
2009-07-23 07:24:53 51°13.666 2°55.947 22.1287 2.353067 15.721666 31.80369
2009-07-23 07:24:58 51°13.667 2°55.943 22.167 2.353067 15.721948 31.80369
2009-07-23 07:25:02 51°13.669 2°55.939 22.1354 2.353067 15.721948 31.80369
2009-07-23 07:25:08 51°13.67 2°55.934 22.1317 2.353067 15.721666 31.80369
2009-07-23 07:25:13 51°13.672 2°55.928 22.1618 2.352963 15.721192 31.80369
2009-07-23 07:25:18 51°13.674 2°55.923 22.1763 2.352963 15.721192 31.80369
2009-07-23 07:25:22 51°13.675 2°55.918 22.1936 2.352963 15.721474 31.80369
2009-07-23 07:25:27 51°13.676 2°55.913 22.2026 2.352963 15.721474 31.768866
2009-07-23 07:25:33 51°13.679 2°55.905 22.2138 2.352963 15.721474 31.768866
2009-07-23 07:25:38 51°13.68 2°55.899 22.2074 2.352964 15.721756 31.768866
2009-07-23 07:25:42 51°13.682 2°55.894 22.2079 2.352964 15.722039 31.80369
2009-07-23 07:25:47 51°13.684 2°55.887 22.2041 2.35286 15.721565 31.768866
2009-07-23 07:25:53 51°13.686 2°55.879 22.2015 2.35286 15.721565 31.768866
2009-07-23 07:25:58 51°13.688 2°55.872 22.1998 2.35286 15.721847 31.768866
2009-07-23 07:26:02 51°13.69 2°55.866 22.1994 2.35286 15.721847 31.768866
2009-07-23 07:26:07 51°13.692 2°55.859 22.1987 2.35286 15.721847 31.768866
2009-07-23 07:26:13 51°13.693 2°55.851 22.1983 2.35286 15.722129 31.768866
2009-07-23 07:26:18 51°13.695 2°55.844 22.1993 2.35286 15.722412 31.80369
2009-07-23 07:26:23 51°13.696 2°55.837 22.2002 2.35286 15.722412 31.768866
2009-07-23 07:26:27 51°13.697 2°55.831 22.2011 2.352757 15.721938 31.768866
2009-07-23 07:26:33 51°13.697 2°55.823 22.2002 2.352757 15.721938 31.768866
2009-07-23 07:26:38 51°13.698 2°55.817 22.2 2.352757 15.721938 31.768866
2009-07-23 07:26:43 51°13.698 2°55.81 22.2005 2.352757 15.72222 31.768866
2009-07-23 07:26:48 51°13.698 2°55.804 22.2 2.352757 15.72222 31.768866
2009-07-23 07:26:53 51°13.699 2°55.798 22.2003 2.352757 15.72222 31.768866
2009-07-23 07:26:58 51°13.698 2°55.792 22.2002 2.352757 15.72222 31.768866
2009-07-23 07:27:02 51°13.698 2°55.788 22.2006 2.352757 15.72222 31.768866
2009-07-23 07:27:08 51°13.698 2°55.781 22.2015 2.352653 15.721747 31.768866
2009-07-23 07:27:12 51°13.698 2°55.777 22.203 2.352653 15.721747 31.768866
2009-07-23 07:27:17 51°13.698 2°55.772 22.2032 2.352654 15.722029 31.768866
2009-07-23 07:27:22 51°13.697 2°55.768 22.2027 2.352654 15.722029 31.734042
2009-07-23 07:27:27 51°13.697 2°55.763 22.2037 2.352654 15.722029 31.734042
2009-07-23 07:27:31 51°13.696 2°55.76 22.2045 2.352654 15.722029 31.734042
2009-07-23 07:27:36 51°13.696 2°55.756 22.2046 2.352654 15.722029 31.734042
2009-07-23 07:27:41 51°13.695 2°55.752 22.2165 2.352654 15.722029 31.734042
2009-07-23 07:27:46 51°13.695 2°55.748 22.2116 2.35255 15.721556 31.734042
2009-07-23 07:27:51 51°13.695 2°55.745 22.2271 2.35255 15.721838 31.734042
2009-07-23 07:27:56 51°13.695 2°55.743 22.2364 2.35255 15.721838 31.734042
2009-07-23 07:28:01 51°13.695 2°55.741 22.2436 2.35255 15.721838 31.734042
2009-07-23 07:28:05 51°13.695 2°55.74 22.2492 2.35255 15.72212 31.734042
2009-07-23 07:28:10 51°13.695 2°55.739 22.252 2.35255 15.722402 31.734042
2009-07-23 07:28:15 51°13.696 2°55.739 22.2542 2.35255 15.722685 31.734042
2009-07-23 07:28:20 51°13.696 2°55.739 22.255 2.35255 15.722967 31.734042
2009-07-23 07:28:25 51°13.698 2°55.739 22.2542 2.35255 15.722967 31.734042
2009-07-23 07:28:30 51°13.699 2°55.739 22.2544 2.35255 15.722967 31.734042
2009-07-23 07:28:34 51°13.7 2°55.739 22.2714 2.35255 15.722967 31.699218
2009-07-23 07:28:39 51°13.702 2°55.739 22.2739 2.352137 15.720509 31.699218
2009-07-23 07:28:44 51°13.704 2°55.74 22.2992 2.352447 15.723058 31.664394
2009-07-23 07:28:49 51°13.708 2°55.739 22.2897 2.352447 15.723905 31.664394
2009-07-23 07:28:54 51°13.712 2°55.739 22.2936 2.35286 15.72721 31.699218
2009-07-23 07:28:59 51°13.716 2°55.737 22.2857 2.35286 15.72721 31.699218
2009-07-23 07:29:05 51°13.722 2°55.733 22.2771 2.352654 15.725416 31.699218
2009-07-23 07:29:10 51°13.727 2°55.73 22.2382 2.352654 15.724852 31.699218
2009-07-23 07:29:14 51°13.73 2°55.726 22.2377 2.352447 15.723058 31.699218
2009-07-23 07:29:19 51°13.735 2°55.721 22.2378 2.352447 15.722776 31.699218
2009-07-23 07:29:24 51°13.741 2°55.715 22.2418 2.352447 15.722493 31.699218
2009-07-23 07:29:29 51°13.747 2°55.709 22.2158 2.352447 15.722493 31.699218
2009-07-23 07:29:34 51°13.754 2°55.702 22.2166 2.352343 15.721738 31.699218
2009-07-23 07:29:39 51°13.762 2°55.695 22.2138 2.352343 15.721456 31.664394
2009-07-23 07:29:44 51°13.77 2°55.686 22.1929 2.352343 15.721173 31.664394
2009-07-23 07:29:49 51°13.779 2°55.678 22.1815 2.35224 15.720136 31.664394
2009-07-23 07:29:54 51°13.788 2°55.67 22.1906 2.35224 15.720418 31.664394
2009-07-23 07:29:59 51°13.798 2°55.661 22.1895 2.35224 15.720418 31.664394
2009-07-23 07:30:04 51°13.809 2°55.652 22.22 2.35224 15.720418 31.664394
2009-07-23 07:30:09 51°13.819 2°55.644 22.2079 2.35224 15.7207 31.664394
2009-07-23 07:30:14 51°13.83 2°55.635 22.2145 2.35224 15.720982 31.664394
2009-07-23 07:30:19 51°13.841 2°55.626 22.2156 2.352137 15.720509 31.664394
2009-07-23 07:30:24 51°13.852 2°55.617 22.2118 2.35224 15.721547 31.664394
2009-07-23 07:30:29 51°13.864 2°55.608 22.2146 2.35224 15.721547 31.664394
2009-07-23 07:30:34 51°13.875 2°55.598 22.199 2.352137 15.721073 31.664394
2009-07-23 07:30:39 51°13.887 2°55.589 22.2426 2.35224 15.721829 31.664394
2009-07-23 07:30:44 51°13.898 2°55.58 22.212 2.352137 15.721355 31.664394
2009-07-23 07:30:49 51°13.91 2°55.571 22.2328 2.352137 15.721355 31.664394
2009-07-23 07:30:54 51°13.922 2°55.562 22.2256 2.352137 15.721638 31.664394
2009-07-23 07:30:59 51°13.933 2°55.553 22.2262 2.352137 15.721638 31.664394
2009-07-23 07:31:04 51°13.945 2°55.544 22.2303 2.352033 15.720882 31.664394
2009-07-23 07:31:09 51°13.957 2°55.535 22.2407 2.352033 15.721164 31.664394
2009-07-23 07:31:14 51°13.969 2°55.526 22.2079 2.352137 15.721638 31.62957
2009-07-23 07:31:19 51°13.981 2°55.517 22.2361 2.35193 15.720408 31.664394
2009-07-23 07:31:24 51°13.993 2°55.509 22.2508 2.352033 15.721446 31.62957
2009-07-23 07:31:29 51°14.005 2°55.5 22.246 2.352033 15.721446 31.62957
2009-07-23 07:31:34 51°14.017 2°55.491 22.244 2.352033 15.721729 31.62957
2009-07-23 07:31:39 51°14.029 2°55.481 22.235 2.35193 15.721255 31.62957
2009-07-23 07:31:44 51°14.04 2°55.472 22.2454 2.352033 15.722011 31.62957
2009-07-23 07:31:49 51°14.052 2°55.463 22.2241 2.35193 15.721255 31.62957
2009-07-23 07:31:54 51°14.064 2°55.454 22.2265 2.35193 15.721537 31.62957
2009-07-23 07:31:59 51°14.076 2°55.446 22.2497 2.35193 15.721537 31.62957
2009-07-23 07:32:04 51°14.088 2°55.436 22.2444 2.351827 15.720782 31.62957
2009-07-23 07:32:09 51°14.1 2°55.427 22.2552 2.35193 15.72182 31.62957
2009-07-23 07:32:14 51°14.111 2°55.418 22.2321 2.35193 15.72182 31.62957
2009-07-23 07:32:19 51°14.123 2°55.408 22.2443 2.351827 15.721064 31.62957
2009-07-23 07:32:24 51°14.134 2°55.399 22.274 2.351827 15.721628 31.62957
2009-07-23 07:32:29 51°14.146 2°55.389 22.2764 2.351827 15.721628 31.62957
2009-07-23 07:32:34 51°14.157 2°55.379 22.2749 2.351827 15.721628 31.62957
2009-07-23 07:32:39 51°14.168 2°55.368 22.2743 2.351723 15.721155 31.594746
2009-07-23 07:32:44 51°14.179 2°55.357 22.2672 2.351827 15.721911 31.62957
2009-07-23 07:32:49 51°14.189 2°55.345 22.2624 2.351827 15.721911 31.594746
2009-07-23 07:32:54 51°14.2 2°55.334 22.2443 2.351723 15.721437 31.62957
2009-07-23 07:32:59 51°14.21 2°55.321 22.2514 2.351723 15.721437 31.62957
2009-07-23 07:33:04 51°14.22 2°55.309 22.257 2.351723 15.721155 31.62957
2009-07-23 07:33:09 51°14.23 2°55.296 22.2919 2.351723 15.721155 31.62957
2009-07-23 07:33:14 51°14.24 2°55.283 22.2898 2.351723 15.72172 31.594746
2009-07-23 07:33:19 51°14.249 2°55.269 22.2856 2.351723 15.72172 31.594746
2009-07-23 07:33:24 51°14.258 2°55.255 22.2534 2.35162 15.721246 31.594746
2009-07-23 07:33:29 51°14.267 2°55.24 22.2642 2.35162 15.721246 31.594746
2009-07-23 07:33:34 51°14.276 2°55.225 22.2397 2.351723 15.722002 31.594746
2009-07-23 07:33:39 51°14.285 2°55.209 22.2424 2.351723 15.722002 31.594746
2009-07-23 07:33:44 51°14.294 2°55.194 22.2421 2.35162 15.720964 31.594746
2009-07-23 07:33:49 51°14.303 2°55.179 22.2705 2.351723 15.72172 31.559922
2009-07-23 07:33:54 51°14.312 2°55.163 22.2292 2.35162 15.720964 31.594746
2009-07-23 07:33:59 51°14.321 2°55.147 22.2617 2.35162 15.720964 31.594746
2009-07-23 07:34:04 51°14.331 2°55.131 22.222 2.35162 15.721246 31.559922
2009-07-23 07:34:09 51°14.34 2°55.115 22.2608 2.35162 15.721528 31.594746
2009-07-23 07:34:14 51°14.349 2°55.099 22.2287 2.35162 15.721528 31.594746
2009-07-23 07:34:19 51°14.358 2°55.083 22.2453 2.35162 15.721528 31.594746
2009-07-23 07:34:24 51°14.368 2°55.067 22.2224 2.35162 15.721246 31.559922
2009-07-23 07:34:29 51°14.377 2°55.05 22.2093 2.35162 15.721246 31.559922
2009-07-23 07:34:34 51°14.388 2°55.034 22.2222 2.351517 15.720772 31.594746
2009-07-23 07:34:39 51°14.398 2°55.019 22.2497 2.351413 15.720017 31.559922
2009-07-23 07:34:44 51°14.409 2°55.004 22.2813 2.351413 15.720299 31.559922
2009-07-23 07:34:49 51°14.419 2°54.989 22.269 2.351413 15.720581 31.559922
2009-07-23 07:34:54 51°14.43 2°54.974 22.2659 2.351413 15.720864 31.559922
2009-07-23 07:34:59 51°14.441 2°54.96 22.2648 2.351413 15.720864 31.559922
2009-07-23 07:35:04 51°14.453 2°54.945 22.2695 2.351517 15.721619 31.559922
2009-07-23 07:35:09 51°14.464 2°54.93 22.2699 2.351413 15.721146 31.559922
2009-07-23 07:35:14 51°14.476 2°54.916 22.2762 2.351517 15.721902 31.559922
2009-07-23 07:35:19 51°14.487 2°54.901 22.2596 2.351413 15.721146 31.559922
2009-07-23 07:35:24 51°14.499 2°54.887 22.2117 2.351413 15.721428 31.559922
2009-07-23 07:35:29 51°14.512 2°54.874 22.2225 2.351413 15.721428 31.559922
2009-07-23 07:35:34 51°14.524 2°54.861 22.2856 2.35131 15.720672 31.559922
2009-07-23 07:35:39 51°14.537 2°54.848 22.2928 2.35131 15.721237 31.559922
2009-07-23 07:35:44 51°14.55 2°54.836 22.2886 2.351413 15.722275 31.525098
2009-07-23 07:35:49 51°14.563 2°54.823 22.2745 2.351413 15.722275 31.525098
2009-07-23 07:35:54 51°14.575 2°54.809 22.2849 2.35131 15.721237 31.525098
2009-07-23 07:35:59 51°14.588 2°54.795 22.2552 2.35131 15.721237 31.525098
2009-07-23 07:36:04 51°14.601 2°54.782 22.2838 2.35131 15.721519 31.559922
2009-07-23 07:36:09 51°14.614 2°54.768 22.2757 2.35131 15.721519 31.525098
2009-07-23 07:36:14 51°14.627 2°54.755 22.2549 2.35131 15.721237 31.525098
2009-07-23 07:36:19 51°14.64 2°54.741 22.2902 2.35131 15.721519 31.525098
2009-07-23 07:36:24 51°14.653 2°54.728 22.2648 2.351207 15.721046 31.490274
2009-07-23 07:36:29 51°14.666 2°54.714 22.2582 2.351207 15.721046 31.490274
2009-07-23 07:36:34 51°14.679 2°54.7 22.2476 2.351207 15.721328 31.525098
2009-07-23 07:36:39 51°14.692 2°54.686 22.2798 2.351207 15.721046 31.525098
2009-07-23 07:36:44 51°14.706 2°54.672 22.2744 2.351207 15.721611 31.490274
2009-07-23 07:36:49 51°14.719 2°54.659 22.2916 2.351103 15.720855 31.525098
2009-07-23 07:36:54 51°14.732 2°54.645 22.2877 2.351207 15.721611 31.525098
2009-07-23 07:36:59 51°14.745 2°54.632 22.2347 2.351207 15.721611 31.525098
2009-07-23 07:37:04 51°14.759 2°54.618 22.2861 2.351207 15.721328 31.490274
2009-07-23 07:37:09 51°14.772 2°54.604 22.2874 2.351103 15.720855 31.490274
2009-07-23 07:37:14 51°14.785 2°54.591 22.2804 2.351103 15.720572 31.490274
2009-07-23 07:37:19 51°14.798 2°54.577 22.2706 2.351103 15.720855 31.490274
2009-07-23 07:37:24 51°14.812 2°54.564 22.2836 2.351 15.720099 31.490274
2009-07-23 07:37:29 51°14.825 2°54.551 22.2854 2.351 15.720099 31.490274
2009-07-23 07:37:34 51°14.838 2°54.538 22.2818 2.351103 15.720855 31.490274
2009-07-23 07:37:39 51°14.852 2°54.525 22.2875 2.351103 15.720855 31.490274
2009-07-23 07:37:44 51°14.865 2°54.513 22.2796 2.351 15.720099 31.490274
2009-07-23 07:37:49 51°14.879 2°54.5 22.2943 2.351103 15.720855 31.490274
2009-07-23 07:37:54 51°14.892 2°54.487 22.2528 2.351 15.720381 31.490274
2009-07-23 07:37:59 51°14.905 2°54.474 22.2756 2.351 15.720381 31.490274
2009-07-23 07:38:04 51°14.919 2°54.462 22.278 2.351 15.720381 31.490274
2009-07-23 07:38:09 51°14.932 2°54.45 22.301 2.351 15.720663 31.490274
2009-07-23 07:38:14 51°14.946 2°54.438 22.2735 2.351 15.720946 31.45545
2009-07-23 07:38:19 51°14.959 2°54.427 22.2823 2.351 15.721228 31.490274
2009-07-23 07:38:24 51°14.973 2°54.415 22.292 2.351 15.721511 31.490274
2009-07-23 07:38:29 51°14.987 2°54.404 22.2922 2.351 15.721511 31.490274
2009-07-23 07:38:34 51°15.001 2°54.392 22.2832 2.351 15.721511 31.45545
2009-07-23 07:38:39 51°15.014 2°54.38 22.3066 2.351 15.721511 31.45545
2009-07-23 07:38:44 51°15.028 2°54.368 22.2717 2.350897 15.720755 31.45545
2009-07-23 07:38:49 51°15.041 2°54.355 22.2837 2.350897 15.721037 31.45545
2009-07-23 07:38:54 51°15.055 2°54.343 22.2581 2.350897 15.720755 31.45545
2009-07-23 07:38:59 51°15.068 2°54.331 22.3007 2.350897 15.720755 31.45545
2009-07-23 07:39:04 51°15.082 2°54.319 22.2838 2.350897 15.721037 31.45545
2009-07-23 07:39:09 51°15.095 2°54.307 22.286 2.350897 15.721319 31.45545
2009-07-23 07:39:14 51°15.109 2°54.295 22.2834 2.350897 15.721319 31.420626
2009-07-23 07:39:19 51°15.122 2°54.282 22.2783 2.350793 15.720563 31.45545
2009-07-23 07:39:24 51°15.135 2°54.27 22.3009 2.350793 15.720563 31.420626
2009-07-23 07:39:29 51°15.149 2°54.258 22.2973 2.350793 15.720563 31.420626
2009-07-23 07:39:34 51°15.162 2°54.246 22.2969 2.350793 15.720281 31.420626
2009-07-23 07:39:39 51°15.176 2°54.233 22.2805 2.350793 15.719998 31.420626
2009-07-23 07:39:44 51°15.189 2°54.221 22.2944 2.350793 15.719998 31.420626
2009-07-23 07:39:49 51°15.203 2°54.209 22.2656 2.350793 15.719998 31.420626
2009-07-23 07:39:54 51°15.216 2°54.197 22.2797 2.350793 15.720563 31.45545
2009-07-23 07:39:59 51°15.229 2°54.184 22.275 2.350793 15.720563 31.45545
2009-07-23 07:40:04 51°15.243 2°54.172 22.2801 2.350793 15.721411 31.45545
2009-07-23 07:40:09 51°15.256 2°54.159 22.2864 2.35069 15.720937 31.420626
2009-07-23 07:40:14 51°15.27 2°54.147 22.2817 2.35069 15.721219 31.420626
2009-07-23 07:40:19 51°15.283 2°54.134 22.2869 2.35069 15.721784 31.420626
2009-07-23 07:40:24 51°15.297 2°54.122 22.258 2.35069 15.721502 31.420626
2009-07-23 07:40:29 51°15.31 2°54.11 22.2946 2.35069 15.721502 31.420626
2009-07-23 07:40:34 51°15.324 2°54.098 22.3 2.35038 15.718951 31.420626
2009-07-23 07:40:39 51°15.337 2°54.086 22.3026 2.35069 15.721502 31.420626
2009-07-23 07:40:44 51°15.351 2°54.074 22.2862 2.350587 15.720463 31.420626
2009-07-23 07:40:49 51°15.365 2°54.063 22.2888 2.350587 15.720181 31.420626
2009-07-23 07:40:54 51°15.379 2°54.051 22.2799 2.350587 15.720463 31.420626
2009-07-23 07:40:59 51°15.392 2°54.039 22.3088 2.350587 15.720463 31.420626
2009-07-23 07:41:04 51°15.406 2°54.028 22.2878 2.350483 15.719707 31.420626
2009-07-23 07:41:09 51°15.42 2°54.016 22.2985 2.350483 15.71999 31.420626
2009-07-23 07:41:14 51°15.433 2°54.004 22.2816 2.350483 15.720554 31.385802
2009-07-23 07:41:19 51°15.447 2°53.992 22.2995 2.350587 15.721876 31.385802
2009-07-23 07:41:24 51°15.461 2°53.98 22.3051 2.350483 15.721119 31.385802
2009-07-23 07:41:29 51°15.474 2°53.967 22.2926 2.350483 15.721119 31.385802
2009-07-23 07:41:34 51°15.488 2°53.954 22.2798 2.350483 15.721119 31.420626
2009-07-23 07:41:39 51°15.501 2°53.942 22.2954 2.35038 15.719798 31.420626
2009-07-23 07:41:44 51°15.515 2°53.93 22.313 2.350483 15.720837 31.385802
2009-07-23 07:41:49 51°15.528 2°53.917 22.2849 2.350587 15.721593 31.385802
2009-07-23 07:41:54 51°15.541 2°53.904 22.2837 2.350483 15.720837 31.385802
2009-07-23 07:41:59 51°15.555 2°53.891 22.2967 2.350483 15.720837 31.385802
2009-07-23 07:42:04 51°15.568 2°53.879 22.3098 2.35038 15.720363 31.350978
2009-07-23 07:42:09 51°15.582 2°53.866 22.2805 2.35038 15.720646 31.385802
2009-07-23 07:42:14 51°15.595 2°53.853 22.3041 2.35038 15.721211 31.385802
2009-07-23 07:42:19 51°15.609 2°53.841 22.2849 2.35038 15.721211 31.385802
2009-07-23 07:42:24 51°15.622 2°53.829 22.2885 2.35038 15.721776 31.385802
2009-07-23 07:42:29 51°15.636 2°53.816 22.2928 2.35038 15.721776 31.385802
2009-07-23 07:42:34 51°15.649 2°53.804 22.2989 2.35038 15.721776 31.350978
2009-07-23 07:42:39 51°15.663 2°53.791 22.2786 2.350277 15.720737 31.385802
2009-07-23 07:42:44 51°15.676 2°53.778 22.3011 2.350277 15.720737 31.385802
2009-07-23 07:42:49 51°15.69 2°53.766 22.2869 2.350277 15.720454 31.350978
2009-07-23 07:42:54 51°15.704 2°53.754 22.3122 2.350277 15.719889 31.385802
2009-07-23 07:42:59 51°15.717 2°53.742 22.3058 2.350277 15.719889 31.385802
2009-07-23 07:43:04 51°15.731 2°53.729 22.3135 2.350277 15.719889 31.350978
2009-07-23 07:43:09 51°15.745 2°53.716 22.2975 2.350277 15.720172 31.350978
2009-07-23 07:43:14 51°15.758 2°53.703 22.2978 2.350173 15.720263 31.350978
2009-07-23 07:43:19 51°15.772 2°53.691 22.2986 2.350173 15.720828 31.350978
2009-07-23 07:43:23 51°15.783 2°53.681 22.3057 2.350173 15.721393 31.316154
2009-07-23 07:43:29 51°15.799 2°53.666 22.3084 2.350173 15.721393 31.316154
2009-07-23 07:43:34 51°15.813 2°53.653 22.3004 2.350173 15.721959 31.350978
2009-07-23 07:43:38 51°15.824 2°53.644 22.3009 2.350173 15.722524 31.350978
2009-07-23 07:43:43 51°15.837 2°53.631 22.3032 2.35007 15.722333 31.350978
2009-07-23 07:43:49 51°15.854 2°53.616 22.2675 2.35007 15.72205 31.316154
2009-07-23 07:43:54 51°15.867 2°53.603 22.3092 2.35007 15.721485 31.350978
2009-07-23 07:43:59 51°15.881 2°53.591 22.2924 2.35007 15.721485 31.350978
2009-07-23 07:44:04 51°15.895 2°53.578 22.3119 2.35007 15.72092 31.350978
2009-07-23 07:44:09 51°15.908 2°53.565 22.2842 2.35007 15.720637 31.316154
2009-07-23 07:44:14 51°15.922 2°53.553 22.3032 2.35007 15.720637 31.316154
2009-07-23 07:44:19 51°15.936 2°53.54 22.3037 2.35007 15.721202 31.350978
2009-07-23 07:44:24 51°15.949 2°53.528 22.33 2.349967 15.720728 31.316154
2009-07-23 07:44:29 51°15.963 2°53.515 22.3039 2.349967 15.720728 31.316154
2009-07-23 07:44:34 51°15.976 2°53.502 22.3077 2.349967 15.721011 31.316154
2009-07-23 07:44:39 51°15.99 2°53.489 22.313 2.349967 15.721294 31.316154
2009-07-23 07:44:44 51°16.003 2°53.476 22.3214 2.350173 15.723372 31.316154
2009-07-23 07:44:49 51°16.017 2°53.463 22.3026 2.349967 15.721576 31.316154
2009-07-23 07:44:54 51°16.03 2°53.45 22.3135 2.349967 15.721859 31.316154
2009-07-23 07:44:59 51°16.043 2°53.436 22.3149 2.349967 15.721859 31.316154
2009-07-23 07:45:04 51°16.056 2°53.423 22.2795 2.349967 15.721576 31.316154
2009-07-23 07:45:09 51°16.07 2°53.41 22.3114 2.349863 15.72082 31.28133
2009-07-23 07:45:14 51°16.083 2°53.396 22.3103 2.349863 15.72082 31.28133
2009-07-23 07:45:19 51°16.096 2°53.382 22.3156 2.349863 15.721102 31.28133
2009-07-23 07:45:24 51°16.109 2°53.369 22.3212 2.34976 15.720063 31.28133
2009-07-23 07:45:29 51°16.123 2°53.355 22.3301 2.34976 15.720063 31.28133
2009-07-23 07:45:34 51°16.136 2°53.342 22.288 2.349863 15.721102 31.316154
2009-07-23 07:45:39 51°16.149 2°53.328 22.3059 2.349863 15.721102 31.28133
2009-07-23 07:45:44 51°16.162 2°53.315 22.2975 2.34976 15.720628 31.316154
2009-07-23 07:45:49 51°16.175 2°53.301 22.3214 2.349863 15.72195 31.28133
2009-07-23 07:45:54 51°16.189 2°53.288 22.3096 2.349863 15.72195 31.316154
2009-07-23 07:45:59 51°16.202 2°53.275 22.3054 2.349863 15.72195 31.316154
2009-07-23 07:46:04 51°16.215 2°53.262 22.3169 2.34976 15.721476 31.316154
2009-07-23 07:46:09 51°16.229 2°53.249 22.3223 2.34976 15.721759 31.28133
2009-07-23 07:46:14 51°16.242 2°53.235 22.3169 2.34976 15.721759 31.28133
2009-07-23 07:46:19 51°16.255 2°53.223 22.3176 2.349657 15.721002 31.28133
2009-07-23 07:46:24 51°16.269 2°53.209 22.3205 2.349657 15.721002 31.28133
2009-07-23 07:46:29 51°16.282 2°53.196 22.2995 2.349657 15.721002 31.28133
2009-07-23 07:46:34 51°16.295 2°53.183 22.3135 2.349657 15.721285 31.28133
2009-07-23 07:46:39 51°16.308 2°53.17 22.3093 2.349657 15.721285 31.28133
2009-07-23 07:46:44 51°16.322 2°53.157 22.3208 2.349657 15.721568 31.28133
2009-07-23 07:46:49 51°16.335 2°53.144 22.3344 2.349657 15.72185 31.28133
2009-07-23 07:46:54 51°16.349 2°53.131 22.3144 2.349657 15.72185 31.28133
2009-07-23 07:46:59 51°16.362 2°53.119 22.2961 2.349657 15.72185 31.28133
2009-07-23 07:47:04 51°16.376 2°53.106 22.3188 2.349553 15.720811 31.246506
2009-07-23 07:47:09 51°16.389 2°53.093 22.3156 2.34945 15.720903 31.28133
2009-07-23 07:47:14 51°16.402 2°53.08 22.3135 2.349553 15.72279 31.246506
2009-07-23 07:47:19 51°16.416 2°53.067 22.3261 2.349553 15.723638 31.28133
2009-07-23 07:47:24 51°16.429 2°53.055 22.3348 2.34945 15.724013 31.246506
2009-07-23 07:47:29 51°16.443 2°53.043 22.3277 2.34945 15.724013 31.246506
2009-07-23 07:47:34 51°16.457 2°53.031 22.3257 2.349554 15.725901 31.246506
2009-07-23 07:47:39 51°16.47 2°53.018 22.3324 2.349554 15.726749 31.28133
2009-07-23 07:47:44 51°16.484 2°53.006 22.3334 2.34945 15.726558 31.246506
2009-07-23 07:47:49 51°16.497 2°52.994 22.3372 2.34945 15.726841 31.246506
2009-07-23 07:47:54 51°16.511 2°52.982 22.3245 2.34945 15.726841 31.246506
2009-07-23 07:47:59 51°16.524 2°52.969 22.3293 2.34945 15.726841 31.246506
2009-07-23 07:48:04 51°16.538 2°52.956 22.331 2.34945 15.726841 31.246506
2009-07-23 07:48:09 51°16.551 2°52.944 22.3282 2.34945 15.726558 31.246506
2009-07-23 07:48:14 51°16.565 2°52.931 22.3367 2.349347 15.725801 31.246506
2009-07-23 07:48:19 51°16.578 2°52.92 22.3485 2.349347 15.726933 31.246506
2009-07-23 07:48:24 51°16.592 2°52.907 22.3075 2.349347 15.728914 31.246506
2009-07-23 07:48:29 51°16.605 2°52.895 22.3266 2.349347 15.728914 31.246506
2009-07-23 07:48:34 51°16.619 2°52.883 22.3231 2.349347 15.730046 31.211682
2009-07-23 07:48:39 51°16.632 2°52.87 22.3284 2.349244 15.730704 31.211682
2009-07-23 07:48:44 51°16.645 2°52.858 22.3374 2.349244 15.731836 31.211682
2009-07-23 07:48:49 51°16.659 2°52.845 22.3247 2.349347 15.73231 31.211682
2009-07-23 07:48:54 51°16.672 2°52.833 22.3299 2.349244 15.730987 31.211682
2009-07-23 07:48:59 51°16.685 2°52.821 22.3511 2.349244 15.730987 31.211682
2009-07-23 07:49:04 51°16.698 2°52.808 22.318 2.349244 15.730987 31.211682
2009-07-23 07:49:09 51°16.712 2°52.796 22.3404 2.349244 15.73127 31.211682
2009-07-23 07:49:14 51°16.725 2°52.784 22.3401 2.349244 15.731836 31.211682
2009-07-23 07:49:19 51°16.738 2°52.771 22.3363 2.349244 15.732686 31.211682
2009-07-23 07:49:24 51°16.751 2°52.759 22.3162 2.34914 15.733628 31.211682
2009-07-23 07:49:29 51°16.764 2°52.746 22.3131 2.34914 15.733628 31.211682
2009-07-23 07:49:34 51°16.777 2°52.735 22.3434 2.34914 15.733061 31.211682
2009-07-23 07:49:38 51°16.787 2°52.725 22.3339 2.349037 15.730605 31.211682
2009-07-23 07:49:44 51°16.803 2°52.71 22.3453 2.349037 15.72919 31.211682
2009-07-23 07:49:49 51°16.816 2°52.698 22.3487 2.34914 15.729381 31.211682
2009-07-23 07:49:54 51°16.829 2°52.686 22.3306 2.349037 15.728341 31.176857
2009-07-23 07:49:59 51°16.842 2°52.674 22.3506 2.349037 15.728341 31.176857
2009-07-23 07:50:04 51°16.855 2°52.662 22.3539 2.348934 15.727584 31.176857
2009-07-23 07:50:09 51°16.868 2°52.65 22.3315 2.34883 15.726827 31.176857
2009-07-23 07:50:14 51°16.881 2°52.639 22.3221 2.348934 15.727301 31.176857
2009-07-23 07:50:19 51°16.894 2°52.627 22.3366 2.349037 15.728058 31.211682
2009-07-23 07:50:24 51°16.907 2°52.615 22.3511 2.348934 15.727018 31.176857
2009-07-23 07:50:29 51°16.919 2°52.603 22.3255 2.348934 15.727018 31.176857
2009-07-23 07:50:34 51°16.932 2°52.59 22.3485 2.348934 15.727018 31.176857
2009-07-23 07:50:39 51°16.945 2°52.578 22.348 2.348934 15.726735 31.176857
2009-07-23 07:50:44 51°16.958 2°52.566 22.3445 2.348934 15.726452 31.176857
2009-07-23 07:50:49 51°16.971 2°52.553 22.3278 2.348934 15.726735 31.176857
2009-07-23 07:50:54 51°16.984 2°52.541 22.3277 2.34883 15.725695 31.176857
2009-07-23 07:50:59 51°16.997 2°52.529 22.347 2.34883 15.725695 31.176857
2009-07-23 07:51:04 51°17.01 2°52.517 22.3459 2.34883 15.725978 31.176857
2009-07-23 07:51:09 51°17.023 2°52.505 22.3308 2.348934 15.727018 31.176857
2009-07-23 07:51:14 51°17.036 2°52.493 22.3333 2.348727 15.72607 31.142033
2009-07-23 07:51:19 51°17.048 2°52.481 22.33 2.348727 15.727768 31.176857
2009-07-23 07:51:24 51°17.061 2°52.469 22.3404 2.348624 15.728992 31.176857
2009-07-23 07:51:29 51°17.074 2°52.457 22.3403 2.348624 15.728992 31.176857
2009-07-23 07:51:34 51°17.087 2°52.445 22.3446 2.348624 15.730408 31.142033
2009-07-23 07:51:39 51°17.1 2°52.433 22.3194 2.348624 15.73239 31.176857
2009-07-23 07:51:44 51°17.113 2°52.421 22.3396 2.34852 15.733049 31.142033
2009-07-23 07:51:49 51°17.126 2°52.41 22.3405 2.34852 15.733899 31.142033
2009-07-23 07:51:54 51°17.139 2°52.398 22.3543 2.34852 15.733616 31.142033
2009-07-23 07:51:59 51°17.152 2°52.387 22.3325 2.34852 15.733616 31.142033
2009-07-23 07:52:04 51°17.165 2°52.376 22.3463 2.348624 15.734657 31.142033
2009-07-23 07:52:09 51°17.179 2°52.365 22.3457 2.34852 15.734466 31.142033
2009-07-23 07:52:14 51°17.192 2°52.354 22.3559 2.348624 15.736074 31.142033
2009-07-23 07:52:19 51°17.205 2°52.343 22.3547 2.348314 15.735501 31.142033
2009-07-23 07:52:24 51°17.218 2°52.332 22.3571 2.34852 15.73645 31.142033
2009-07-23 07:52:29 51°17.232 2°52.322 22.3485 2.34852 15.73645 31.142033
2009-07-23 07:52:34 51°17.245 2°52.311 22.3387 2.34852 15.7373 31.142033
2009-07-23 07:52:39 51°17.258 2°52.299 22.3553 2.348417 15.737109 31.107209
2009-07-23 07:52:44 51°17.272 2°52.289 22.3353 2.348314 15.737202 31.142033
2009-07-23 07:52:49 51°17.285 2°52.278 22.349 2.348314 15.737769 31.142033
2009-07-23 07:52:54 51°17.298 2°52.267 22.3477 2.34821 15.738429 31.142033
2009-07-23 07:52:59 51°17.312 2°52.256 22.335 2.34821 15.738429 31.142033
2009-07-23 07:53:04 51°17.325 2°52.245 22.3361 2.348417 15.740512 31.107209
2009-07-23 07:53:09 51°17.338 2°52.234 22.3446 2.34821 15.738996 31.107209
2009-07-23 07:53:14 51°17.352 2°52.223 22.3431 2.34821 15.73928 31.107209
2009-07-23 07:53:19 51°17.365 2°52.213 22.3325 2.348107 15.738522 31.107209
2009-07-23 07:53:24 51°17.378 2°52.202 22.3642 2.34821 15.738713 31.107209
2009-07-23 07:53:29 51°17.392 2°52.192 22.3661 2.34821 15.738713 31.107209
2009-07-23 07:53:34 51°17.405 2°52.182 22.3538 2.348107 15.737955 31.107209
2009-07-23 07:53:39 51°17.419 2°52.171 22.3596 2.348107 15.737955 31.107209
2009-07-23 07:53:44 51°17.432 2°52.16 22.3559 2.34821 15.738996 31.107209
2009-07-23 07:53:49 51°17.445 2°52.149 22.3545 2.348107 15.739089 31.107209
2009-07-23 07:53:54 51°17.459 2°52.138 22.3596 2.348004 15.738615 31.107209
2009-07-23 07:53:59 51°17.472 2°52.127 22.3556 2.348004 15.738615 31.107209
2009-07-23 07:54:04 51°17.485 2°52.116 22.3515 2.348004 15.738615 31.107209
2009-07-23 07:54:09 51°17.498 2°52.105 22.3455 2.348107 15.739089 31.107209
2009-07-23 07:54:14 51°17.512 2°52.094 22.3578 2.348004 15.740033 31.107209
2009-07-23 07:54:19 51°17.525 2°52.083 22.3591 2.347901 15.741545 31.107209
2009-07-23 07:54:24 51°17.538 2°52.073 22.3763 2.347901 15.743531 31.072385
2009-07-23 07:54:29 51°17.551 2°52.062 22.3629 2.347901 15.743531 31.072385
2009-07-23 07:54:34 51°17.565 2°52.05 22.3743 2.347901 15.745802 31.072385
2009-07-23 07:54:39 51°17.578 2°52.039 22.3537 2.347797 15.745328 31.072385
2009-07-23 07:54:44 51°17.591 2°52.028 22.3726 2.347797 15.746748 31.072385
2009-07-23 07:54:49 51°17.604 2°52.017 22.3737 2.347797 15.748452 31.072385
2009-07-23 07:54:54 51°17.617 2°52.006 22.3401 2.347797 15.751293 31.072385
2009-07-23 07:54:59 51°17.63 2°51.995 22.3529 2.347797 15.751293 31.072385
2009-07-23 07:55:04 51°17.643 2°51.984 22.3516 2.347797 15.754135 31.072385
2009-07-23 07:55:09 51°17.656 2°51.973 22.3648 2.347797 15.755841 31.072385
2009-07-23 07:55:14 51°17.669 2°51.962 22.372 2.347798 15.757547 31.072385
2009-07-23 07:55:19 51°17.682 2°51.951 22.3643 2.347694 15.75821 31.107209
2009-07-23 07:55:24 51°17.695 2°51.94 22.3768 2.347694 15.758495 31.037561
2009-07-23 07:55:29 51°17.708 2°51.929 22.3682 2.347694 15.758495 31.037561
2009-07-23 07:55:34 51°17.721 2°51.918 22.3772 2.347591 15.757451 31.072385
2009-07-23 07:55:39 51°17.735 2°51.907 22.3655 2.347591 15.756314 31.037561
2009-07-23 07:55:44 51°17.748 2°51.896 22.3529 2.347487 15.754133 31.037561
2009-07-23 07:55:49 51°17.761 2°51.885 22.3528 2.347384 15.751953 31.037561
2009-07-23 07:55:54 51°17.774 2°51.874 22.3781 2.347487 15.751859 31.037561
2009-07-23 07:55:59 51°17.787 2°51.863 22.354 2.347487 15.751859 31.037561
2009-07-23 07:56:04 51°17.8 2°51.852 22.376 2.347487 15.750722 31.072385
2009-07-23 07:56:09 51°17.813 2°51.841 22.3655 2.347487 15.750722 31.037561
2009-07-23 07:56:14 51°17.826 2°51.83 22.3684 2.347384 15.749963 31.037561
2009-07-23 07:56:19 51°17.839 2°51.819 22.3688 2.347487 15.751006 31.037561
2009-07-23 07:56:24 51°17.853 2°51.808 22.375 2.347384 15.749395 31.037561
2009-07-23 07:56:29 51°17.866 2°51.797 22.3781 2.347384 15.749395 31.037561
2009-07-23 07:56:34 51°17.879 2°51.786 22.3705 2.347384 15.749963 31.037561
2009-07-23 07:56:39 51°17.892 2°51.775 22.367 2.347177 15.747594 31.037561
2009-07-23 07:56:44 51°17.905 2°51.764 22.3697 2.347177 15.74731 31.037561
2009-07-23 07:56:49 51°17.918 2°51.753 22.3578 2.347281 15.748068 31.002737
2009-07-23 07:56:54 51°17.932 2°51.741 22.3672 2.347281 15.748352 31.037561
2009-07-23 07:56:59 51°17.945 2°51.73 22.3755 2.347281 15.748352 31.037561
2009-07-23 07:57:04 51°17.958 2°51.719 22.3666 2.347177 15.748446 31.002737
2009-07-23 07:57:09 51°17.971 2°51.707 22.3752 2.347177 15.748446 31.037561
2009-07-23 07:57:14 51°17.984 2°51.696 22.3684 2.346971 15.747213 31.037561
2009-07-23 07:57:19 51°17.997 2°51.685 22.3789 2.346971 15.746929 31.037561
2009-07-23 07:57:24 51°18.011 2°51.674 22.3544 2.346971 15.747497 31.002737
2009-07-23 07:57:29 51°18.024 2°51.663 22.3746 2.346971 15.747497 31.002737
2009-07-23 07:57:34 51°18.037 2°51.652 22.3725 2.346971 15.748066 31.002737
2009-07-23 07:57:39 51°18.051 2°51.642 22.3771 2.346764 15.748253 31.002737
2009-07-23 07:57:44 51°18.064 2°51.631 22.3742 2.346971 15.748634 31.002737
2009-07-23 07:57:49 51°18.078 2°51.621 22.3791 2.346867 15.749296 31.037561
2009-07-23 07:57:54 51°18.091 2°51.61 22.386 2.346764 15.749959 31.002737
2009-07-23 07:57:59 51°18.105 2°51.599 22.3855 2.346764 15.749959 31.002737
2009-07-23 07:58:04 51°18.119 2°51.589 22.3668 2.346764 15.752802 31.002737
2009-07-23 07:58:09 51°18.132 2°51.578 22.3849 2.346764 15.755077 31.002737
2009-07-23 07:58:14 51°18.146 2°51.567 22.3661 2.346764 15.755646 31.002737
2009-07-23 07:58:19 51°18.159 2°51.556 22.3884 2.346557 15.754697 31.002737
2009-07-23 07:58:24 51°18.173 2°51.545 22.3842 2.346661 15.755172 31.002737
2009-07-23 07:58:29 51°18.186 2°51.534 22.369 2.346661 15.755172 31.002737
2009-07-23 07:58:34 51°18.2 2°51.522 22.3858 2.346557 15.754128 30.967913
2009-07-23 07:58:39 51°18.213 2°51.511 22.382 2.346247 15.752136 31.002737
2009-07-23 07:58:44 51°18.226 2°51.5 22.3773 2.346454 15.750241 31.002737
2009-07-23 07:58:49 51°18.24 2°51.488 22.3847 2.346351 15.749766 30.967913
2009-07-23 07:58:54 51°18.253 2°51.477 22.3908 2.346454 15.751378 30.967913
2009-07-23 07:58:59 51°18.267 2°51.467 22.3747 2.346454 15.751378 30.967913
2009-07-23 07:59:04 51°18.28 2°51.455 22.3827 2.346351 15.750904 31.002737
2009-07-23 07:59:09 51°18.294 2°51.444 22.3911 2.346247 15.750145 30.967913
2009-07-23 07:59:14 51°18.307 2°51.433 22.375 2.346247 15.750429 30.967913
2009-07-23 07:59:19 51°18.321 2°51.421 22.3747 2.346144 15.74967 30.967913
2009-07-23 07:59:24 51°18.334 2°51.41 22.386 2.345937 15.747584 30.967913
2009-07-23 07:59:29 51°18.348 2°51.399 22.3878 2.345937 15.747584 30.967913
2009-07-23 07:59:34 51°18.361 2°51.388 22.3842 2.346144 15.748817 30.933089
2009-07-23 07:59:39 51°18.374 2°51.376 22.3936 2.346041 15.747774 30.967913
2009-07-23 07:59:44 51°18.388 2°51.365 22.3936 2.345937 15.752134 30.967913
2009-07-23 07:59:49 51°18.401 2°51.353 22.3781 2.345937 15.755264 30.967913
2009-07-23 07:59:54 51°18.415 2°51.342 22.3716 2.345834 15.757636 30.967913
2009-07-23 07:59:59 51°18.428 2°51.33 22.3809 2.345834 15.757636 30.967913
2009-07-23 08:00:04 51°18.441 2°51.318 22.3999 2.345731 15.760009 30.967913
2009-07-23 08:00:09 51°18.455 2°51.307 22.3968 2.345628 15.761244 30.967913
2009-07-23 08:00:14 51°18.468 2°51.296 22.3849 2.345938 15.761813 30.933089
2009-07-23 08:00:19 51°18.482 2°51.284 22.3769 2.345628 15.75925 30.933089
2009-07-23 08:00:24 51°18.495 2°51.272 22.3662 2.345007 15.754123 30.933089
2009-07-23 08:00:29 51°18.508 2°51.26 22.3812 2.345007 15.754123 30.933089
2009-07-23 08:00:34 51°18.521 2°51.247 22.3895 2.345421 15.757161 30.967913
2009-07-23 08:00:39 51°18.534 2°51.236 22.3933 2.345421 15.759439 30.933089
2009-07-23 08:00:44 51°18.548 2°51.224 22.3981 2.345524 15.761339 30.933089
2009-07-23 08:00:49 51°18.561 2°51.212 22.3974 2.345524 15.762478 30.933089
2009-07-23 08:00:54 51°18.574 2°51.2 22.3859 2.345421 15.763999 30.933089
2009-07-23 08:00:59 51°18.588 2°51.189 22.3832 2.345421 15.763999 30.933089
2009-07-23 08:01:04 51°18.601 2°51.177 22.3932 2.345214 15.763904 30.933089
2009-07-23 08:01:09 51°18.614 2°51.165 22.3964 2.345214 15.76533 30.933089
2009-07-23 08:01:14 51°18.628 2°51.153 22.3892 2.345111 15.76457 30.933089
2009-07-23 08:01:19 51°18.641 2°51.142 22.3903 2.345008 15.76438 30.933089
2009-07-23 08:01:24 51°18.654 2°51.13 22.4003 2.344904 15.76419 30.933089
2009-07-23 08:01:29 51°18.668 2°51.118 22.4182 2.344904 15.76419 30.933089
2009-07-23 08:01:34 51°18.681 2°51.106 22.3811 2.344801 15.762575 30.898265
2009-07-23 08:01:39 51°18.694 2°51.093 22.3992 2.345214 15.763049 30.898265
2009-07-23 08:01:44 51°18.707 2°51.081 22.3714 2.344698 15.759535 30.933089
2009-07-23 08:01:49 51°18.72 2°51.068 22.4087 2.345008 15.761244 30.933089
2009-07-23 08:01:54 51°18.733 2°51.055 22.3784 2.344801 15.759439 30.933089
2009-07-23 08:01:59 51°18.746 2°51.041 22.3918 2.344801 15.759439 30.933089
2009-07-23 08:02:04 51°18.759 2°51.028 22.3761 2.344904 15.75849 30.898265
2009-07-23 08:02:09 51°18.772 2°51.014 22.4083 2.344697 15.7564 30.898265
2009-07-23 08:02:14 51°18.785 2°51.001 22.3818 2.344594 15.75678 30.898265
2009-07-23 08:02:19 51°18.798 2°50.987 22.3957 2.344491 15.75716 30.898265
2009-07-23 08:02:24 51°18.811 2°50.974 22.4043 2.344594 15.75792 30.898265
2009-07-23 08:02:29 51°18.823 2°50.96 22.4086 2.344594 15.75792 30.898265
2009-07-23 08:02:34 51°18.836 2°50.946 22.4038 2.344387 15.756685 30.898265
2009-07-23 08:02:39 51°18.849 2°50.933 22.4063 2.344284 15.755355 30.898265
2009-07-23 08:02:44 51°18.862 2°50.918 22.4169 2.344388 15.75697 30.898265
2009-07-23 08:02:49 51°18.875 2°50.905 22.418 2.344181 15.755735 30.898265
2009-07-23 08:02:54 51°18.888 2°50.891 22.3927 2.344077 15.755545 30.898265
2009-07-23 08:02:59 51°18.9 2°50.877 22.4014 2.344077 15.755545 30.898265
2009-07-23 08:03:04 51°18.913 2°50.862 22.3922 2.344284 15.756495 30.898265
2009-07-23 08:03:09 51°18.926 2°50.848 22.4072 2.344077 15.75583 30.863441
2009-07-23 08:03:14 51°18.938 2°50.834 22.4084 2.344077 15.756685 30.898265
2009-07-23 08:03:19 51°18.951 2°50.82 22.3911 2.343871 15.75659 30.863441
2009-07-23 08:03:24 51°18.963 2°50.805 22.4044 2.343871 15.759155 30.863441
2009-07-23 08:03:29 51°18.976 2°50.791 22.4132 2.343871 15.759155 30.863441
2009-07-23 08:03:34 51°18.988 2°50.776 22.413 2.343768 15.764385 30.863441
2009-07-23 08:03:39 51°19.001 2°50.762 22.4122 2.343561 15.773428 30.863441
2009-07-23 08:03:44 51°19.014 2°50.749 22.3974 2.343665 15.779049 30.863441
2009-07-23 08:03:49 51°19.027 2°50.734 22.4038 2.343458 15.779242 30.863441
2009-07-23 08:03:54 51°19.039 2°50.721 22.4012 2.343561 15.780862 30.863441
2009-07-23 08:03:59 51°19.052 2°50.707 22.4052 2.343561 15.780862 30.863441
2009-07-23 08:04:04 51°19.065 2°50.693 22.3937 2.343665 15.781623 30.863441
2009-07-23 08:04:09 51°19.078 2°50.679 22.4095 2.343355 15.776765 30.828617
2009-07-23 08:04:14 51°19.09 2°50.665 22.4173 2.343458 15.774954 30.863441
2009-07-23 08:04:19 51°19.103 2°50.651 22.3967 2.343044 15.769052 30.863441
2009-07-23 08:04:24 51°19.116 2°50.637 22.4219 2.343458 15.767241 30.863441
2009-07-23 08:04:29 51°19.129 2°50.624 22.4043 2.343458 15.767241 30.863441
2009-07-23 08:04:34 51°19.142 2°50.61 22.4135 2.343251 15.762295 30.863441
2009-07-23 08:04:39 51°19.155 2°50.597 22.4267 2.343148 15.758967 30.828617
2009-07-23 08:04:44 51°19.167 2°50.584 22.4195 2.343147 15.7564 30.863441
2009-07-23 08:04:49 51°19.18 2°50.57 22.4226 2.342941 15.752314 30.828617
2009-07-23 08:04:54 51°19.193 2°50.556 22.4146 2.343147 15.75127 30.828617
2009-07-23 08:04:59 51°19.206 2°50.543 22.4089 2.343147 15.75127 30.828617
2009-07-23 08:05:04 51°19.219 2°50.529 22.4261 2.342837 15.74842 30.828617
2009-07-23 08:05:09 51°19.232 2°50.516 22.4068 2.342837 15.749275 30.828617
2009-07-23 08:05:14 51°19.245 2°50.503 22.4141 2.342321 15.746044 30.828617
2009-07-23 08:05:19 51°19.258 2°50.489 22.4161 2.342631 15.750034 30.793793
2009-07-23 08:05:24 51°19.271 2°50.476 22.4188 2.342527 15.750414 30.793793
2009-07-23 08:05:29 51°19.284 2°50.462 22.4189 2.342527 15.750414 30.793793
2009-07-23 08:05:34 51°19.297 2°50.448 22.433 2.342631 15.752599 30.793793
2009-07-23 08:05:39 51°19.31 2°50.435 22.4272 2.342527 15.752694 30.828617
2009-07-23 08:05:44 51°19.323 2°50.421 22.4222 2.342424 15.752504 30.793793
2009-07-23 08:05:49 51°19.335 2°50.407 22.4138 2.342424 15.752219 30.793793
2009-07-23 08:05:54 51°19.348 2°50.393 22.4297 2.342217 15.751838 30.793793
2009-07-23 08:05:59 51°19.361 2°50.38 22.4402 2.342217 15.751838 30.793793
2009-07-23 08:06:04 51°19.374 2°50.366 22.4218 2.342321 15.752884 30.793793
2009-07-23 08:06:09 51°19.387 2°50.353 22.4215 2.342217 15.748703 30.793793
2009-07-23 08:06:14 51°19.401 2°50.339 22.4295 2.342217 15.747848 30.793793
2009-07-23 08:06:19 51°19.414 2°50.326 22.4278 2.342114 15.746518 30.793793
2009-07-23 08:06:24 51°19.427 2°50.312 22.4219 2.341804 15.743668 30.793793
2009-07-23 08:06:29 51°19.44 2°50.299 22.4303 2.341804 15.743668 30.793793
2009-07-23 08:06:34 51°19.453 2°50.285 22.4338 2.342011 15.746043 30.793793
2009-07-23 08:06:39 51°19.466 2°50.271 22.4283 2.341907 15.746138 30.793793
2009-07-23 08:06:44 51°19.479 2°50.258 22.4474 2.341907 15.746707 30.793793
2009-07-23 08:06:49 51°19.492 2°50.245 22.4251 2.341907 15.748417 30.793793
2009-07-23 08:06:54 51°19.505 2°50.231 22.4375 2.341907 15.746707 30.758969
2009-07-23 08:06:59 51°19.518 2°50.217 22.4375 2.341907 15.746707 30.758969
2009-07-23 08:07:04 51°19.531 2°50.204 22.4432 2.341391 15.744046 30.758969
2009-07-23 08:07:09 51°19.545 2°50.19 22.4387 2.341391 15.747181 30.758969
2009-07-23 08:07:14 51°19.558 2°50.177 22.4422 2.341391 15.748891 30.758969
2009-07-23 08:07:19 51°19.571 2°50.164 22.4257 2.341597 15.750697 30.758969
2009-07-23 08:07:24 51°19.584 2°50.151 22.4356 2.341494 15.750222 30.758969
2009-07-23 08:07:29 51°19.598 2°50.138 22.4422 2.341494 15.750222 30.758969
2009-07-23 08:07:34 51°19.611 2°50.124 22.4246 2.341391 15.750887 30.758969
2009-07-23 08:07:39 51°19.625 2°50.111 22.4202 2.341494 15.749937 30.758969
2009-07-23 08:07:44 51°19.638 2°50.097 22.4532 2.341287 15.750982 30.758969
2009-07-23 08:07:49 51°19.651 2°50.084 22.4297 2.340977 15.750127 30.758969
2009-07-23 08:07:54 51°19.665 2°50.07 22.4338 2.341287 15.751838 30.758969
2009-07-23 08:07:59 51°19.678 2°50.057 22.4448 2.341287 15.751838 30.758969
2009-07-23 08:08:04 51°19.691 2°50.044 22.4482 2.341081 15.750887 30.758969
2009-07-23 08:08:09 51°19.705 2°50.03 22.4368 2.340977 15.750982 30.758969
2009-07-23 08:08:14 51°19.718 2°50.017 22.4375 2.340977 15.749271 30.758969
2009-07-23 08:08:19 51°19.731 2°50.003 22.4535 2.340977 15.748986 30.758969
2009-07-23 08:08:24 51°19.745 2°49.99 22.45 2.340771 15.74775 30.724145
2009-07-23 08:08:29 51°19.758 2°49.977 22.4447 2.340771 15.74775 30.724145
2009-07-23 08:08:34 51°19.771 2°49.964 22.4326 2.340771 15.748035 30.758969
2009-07-23 08:08:39 51°19.785 2°49.95 22.428 2.340874 15.74851 30.724145
2009-07-23 08:08:44 51°19.798 2°49.937 22.4576 2.340667 15.747274 30.758969
2009-07-23 08:08:49 51°19.811 2°49.924 22.4484 2.340874 15.748796 30.724145
2009-07-23 08:08:54 51°19.824 2°49.909 22.4377 2.340461 15.746609 30.758969
2009-07-23 08:08:59 51°19.838 2°49.896 22.4281 2.340461 15.746609 30.758969
2009-07-23 08:09:04 51°19.851 2°49.883 22.4583 2.340357 15.74813 30.724145
2009-07-23 08:09:09 51°19.864 2°49.869 22.4524 2.340461 15.753456 30.724145
2009-07-23 08:09:14 51°19.877 2°49.855 22.4492 2.340461 15.759453 30.724145
2009-07-23 08:09:19 51°19.89 2°49.841 22.4658 2.340564 15.768504 30.724145
2009-07-23 08:09:24 51°19.903 2°49.827 22.4457 2.340358 15.773276 30.724145
2009-07-23 08:09:29 51°19.916 2°49.812 22.4664 2.340358 15.773276 30.724145
2009-07-23 08:09:34 51°19.929 2°49.797 22.4373 2.340255 15.773659 30.724145
2009-07-23 08:09:39 51°19.941 2°49.782 22.4511 2.340358 15.772131 30.689321
2009-07-23 08:09:44 51°19.954 2°49.767 22.452 2.340048 15.765268 30.724145
2009-07-23 08:09:49 51°19.967 2°49.752 22.4618 2.340048 15.760122 30.689321
2009-07-23 08:09:54 51°19.98 2°49.737 22.4467 2.340254 15.756788 30.689321
2009-07-23 08:09:59 51°19.992 2°49.722 22.4539 2.340254 15.756788 30.689321
2009-07-23 08:10:04 51°20.005 2°49.706 22.4454 2.340151 15.751458 30.689321
2009-07-23 08:10:09 51°20.017 2°49.69 22.472 2.339841 15.747178 30.689321
2009-07-23 08:10:14 51°20.03 2°49.675 22.4551 2.339944 15.747083 30.689321
2009-07-23 08:10:19 51°20.043 2°49.66 22.4545 2.339841 15.746893 30.689321
2009-07-23 08:10:24 51°20.055 2°49.644 22.4604 2.339737 15.746132 30.689321
2009-07-23 08:10:29 51°20.068 2°49.629 22.4569 2.339737 15.746132 30.689321
2009-07-23 08:10:34 51°20.08 2°49.614 22.4675 2.339737 15.747273 30.689321
2009-07-23 08:10:39 51°20.093 2°49.598 22.468 2.339737 15.748129 30.689321
2009-07-23 08:10:44 51°20.106 2°49.583 22.4625 2.339634 15.747654 30.689321
2009-07-23 08:10:49 51°20.118 2°49.568 22.4693 2.339634 15.74851 30.689321
2009-07-23 08:10:54 51°20.131 2°49.552 22.471 2.339427 15.748129 30.654497
2009-07-23 08:10:59 51°20.143 2°49.536 22.4547 2.339427 15.748129 30.654497
2009-07-23 08:11:04 51°20.156 2°49.521 22.4644 2.339531 15.74889 30.689321
2009-07-23 08:11:09 51°20.168 2°49.505 22.4798 2.339427 15.748415 30.654497
2009-07-23 08:11:14 51°20.181 2°49.489 22.4518 2.339634 15.749937 30.654497
2009-07-23 08:11:19 51°20.193 2°49.473 22.4644 2.339014 15.745656 30.654497
2009-07-23 08:11:24 51°20.205 2°49.457 22.4638 2.339221 15.747463 30.654497
2009-07-23 08:11:29 51°20.218 2°49.441 22.4659 2.339221 15.747463 30.654497
2009-07-23 08:11:34 51°20.23 2°49.425 22.4708 2.339117 15.746702 30.654497
2009-07-23 08:11:39 51°20.243 2°49.41 22.4665 2.339117 15.746988 30.654497
2009-07-23 08:11:44 51°20.255 2°49.394 22.477 2.339324 15.748795 30.654497
2009-07-23 08:11:49 51°20.268 2°49.378 22.4697 2.339117 15.748129 30.619673
2009-07-23 08:11:54 51°20.28 2°49.362 22.4619 2.339014 15.747939 30.654497
2009-07-23 08:11:59 51°20.292 2°49.346 22.4658 2.339014 15.747939 30.654497
2009-07-23 08:12:04 51°20.305 2°49.33 22.463 2.339014 15.748225 30.654497
2009-07-23 08:12:09 51°20.317 2°49.314 22.473 2.338807 15.74813 30.654497
2009-07-23 08:12:14 51°20.33 2°49.298 22.4738 2.339014 15.750223 30.654497
2009-07-23 08:12:19 51°20.342 2°49.281 22.4745 2.339117 15.75127 30.654497
2009-07-23 08:12:24 51°20.354 2°49.265 22.4748 2.339014 15.75108 30.654497
2009-07-23 08:12:29 51°20.367 2°49.249 22.4666 2.339014 15.75108 30.654497
2009-07-23 08:12:34 51°20.379 2°49.233 22.4897 2.338497 15.748416 30.619673
2009-07-23 08:12:39 51°20.391 2°49.217 22.4803 2.338497 15.749844 30.619673
2009-07-23 08:12:44 51°20.403 2°49.201 22.4747 2.338601 15.751176 30.619673
2009-07-23 08:12:49 51°20.416 2°49.185 22.4665 2.338187 15.748416 30.654497
2009-07-23 08:12:54 51°20.428 2°49.169 22.4884 2.338291 15.748606 30.619673
2009-07-23 08:12:59 51°20.441 2°49.154 22.469 2.338291 15.748606 30.619673
2009-07-23 08:13:04 51°20.453 2°49.138 22.483 2.338394 15.74794 30.619673
2009-07-23 08:13:09 51°20.466 2°49.123 22.4811 2.338601 15.74832 30.619673
2009-07-23 08:13:14 51°20.478 2°49.107 22.4812 2.338394 15.745656 30.619673
2009-07-23 08:13:19 51°20.491 2°49.091 22.4912 2.338394 15.74537 30.584849
2009-07-23 08:13:24 51°20.503 2°49.075 22.4604 2.338291 15.74518 30.619673
2009-07-23 08:13:29 51°20.516 2°49.059 22.4622 2.338291 15.74518 30.619673
2009-07-23 08:13:34 51°20.528 2°49.044 22.4708 2.338394 15.747654 30.654497
2009-07-23 08:13:39 51°20.541 2°49.028 22.4675 2.338291 15.748321 30.619673
2009-07-23 08:13:44 51°20.553 2°49.012 22.4723 2.337877 15.746132 30.584849
2009-07-23 08:13:49 51°20.566 2°48.997 22.4626 2.337981 15.74775 30.619673
2009-07-23 08:13:54 51°20.579 2°48.982 22.4835 2.337877 15.746417 30.619673
2009-07-23 08:13:59 51°20.591 2°48.966 22.4958 2.337877 15.746417 30.619673
2009-07-23 08:14:04 51°20.604 2°48.951 22.4939 2.337877 15.746132 30.584849
2009-07-23 08:14:09 51°20.616 2°48.935 22.4912 2.337671 15.74518 30.584849
2009-07-23 08:14:14 51°20.629 2°48.92 22.4875 2.337877 15.746417 30.584849
2009-07-23 08:14:19 51°20.641 2°48.904 22.4987 2.338084 15.74794 30.584849
2009-07-23 08:14:24 51°20.654 2°48.889 22.4903 2.337671 15.746037 30.550024
2009-07-23 08:14:29 51°20.666 2°48.873 22.4941 2.337671 15.746037 30.550024
2009-07-23 08:14:34 51°20.679 2°48.857 22.4759 2.337567 15.746132 30.550024
2009-07-23 08:14:39 51°20.691 2°48.842 22.4916 2.337877 15.74756 30.584849
2009-07-23 08:14:44 51°20.703 2°48.826 22.4933 2.337464 15.744799 30.584849
2009-07-23 08:14:49 51°20.716 2°48.81 22.4939 2.337464 15.745656 30.584849
2009-07-23 08:14:54 51°20.729 2°48.795 22.4935 2.337257 15.744133 30.550024
2009-07-23 08:14:59 51°20.741 2°48.779 22.4946 2.337257 15.744133 30.550024
2009-07-23 08:15:04 51°20.754 2°48.764 22.4941 2.337464 15.745085 30.584849
2009-07-23 08:15:09 51°20.766 2°48.748 22.4753 2.337464 15.744228 30.550024
2009-07-23 08:15:14 51°20.779 2°48.732 22.4991 2.336224 15.734806 30.550024
2009-07-23 08:15:19 51°20.791 2°48.716 22.4837 2.337154 15.742801 30.550024
2009-07-23 08:15:24 51°20.804 2°48.701 22.4936 2.336741 15.740326 30.584849
2009-07-23 08:15:29 51°20.816 2°48.685 22.5085 2.336741 15.740326 30.584849
2009-07-23 08:15:34 51°20.829 2°48.67 22.4908 2.337361 15.747466 30.584849
2009-07-23 08:15:39 51°20.841 2°48.654 22.5103 2.337051 15.746323 30.550024
2009-07-23 08:15:44 51°20.854 2°48.639 22.5014 2.337361 15.74918 30.550024
2009-07-23 08:15:49 51°20.866 2°48.622 22.4855 2.336844 15.7448 30.550024
2009-07-23 08:15:54 51°20.879 2°48.607 22.4877 2.336741 15.744324 30.550024
2009-07-23 08:15:59 51°20.891 2°48.591 22.5096 2.336741 15.744324 30.550024
2009-07-23 08:16:04 51°20.904 2°48.575 22.4795 2.337051 15.747466 30.550024
2009-07-23 08:16:09 51°20.916 2°48.56 22.472 2.336431 15.74461 30.550024
2009-07-23 08:16:14 51°20.929 2°48.544 22.4987 2.336741 15.747467 30.5152
2009-07-23 08:16:19 51°20.941 2°48.528 22.5122 2.336637 15.748134 30.550024
2009-07-23 08:16:24 51°20.954 2°48.512 22.4938 2.336741 15.746324 30.550024
2009-07-23 08:16:29 51°20.966 2°48.496 22.51 2.336741 15.746324 30.550024
2009-07-23 08:16:34 51°20.979 2°48.48 22.5054 2.335914 15.739373 30.5152
2009-07-23 08:16:39 51°20.991 2°48.465 22.504 2.336741 15.744324 30.5152
2009-07-23 08:16:44 51°21.004 2°48.449 22.4906 2.336637 15.741849 30.5152
2009-07-23 08:16:49 51°21.016 2°48.434 22.5032 2.336431 15.740896 30.5152
2009-07-23 08:16:54 51°21.029 2°48.418 22.4922 2.336327 15.741563 30.5152
2009-07-23 08:16:59 51°21.042 2°48.403 22.5102 2.336327 15.741563 30.5152
2009-07-23 08:17:04 51°21.054 2°48.388 22.5145 2.336017 15.741849 30.5152
2009-07-23 08:17:09 51°21.067 2°48.373 22.49 2.336017 15.744135 30.5152
2009-07-23 08:17:14 51°21.08 2°48.358 22.5028 2.335811 15.743754 30.5152
2009-07-23 08:17:19 51°21.093 2°48.343 22.5182 2.336224 15.74623 30.5152
2009-07-23 08:17:24 51°21.105 2°48.328 22.4984 2.336017 15.744706 30.5152
2009-07-23 08:17:29 51°21.118 2°48.313 22.5149 2.336017 15.744706 30.5152
2009-07-23 08:17:34 51°21.131 2°48.298 22.5045 2.335604 15.74023 30.480376
2009-07-23 08:17:39 51°21.144 2°48.283 22.5282 2.335707 15.741563 30.5152
2009-07-23 08:17:44 51°21.157 2°48.268 22.5186 2.336017 15.744135 30.480376
2009-07-23 08:17:49 51°21.169 2°48.253 22.4987 2.335811 15.743468 30.480376
2009-07-23 08:17:54 51°21.182 2°48.237 22.5181 2.335707 15.74871 30.480376
2009-07-23 08:17:59 51°21.195 2°48.222 22.4986 2.335707 15.74871 30.480376
2009-07-23 08:18:04 51°21.207 2°48.206 22.5222 2.335708 15.755578 30.5152
2009-07-23 08:18:09 51°21.22 2°48.191 22.5186 2.335708 15.760161 30.5152
2009-07-23 08:18:14 51°21.233 2°48.175 22.5221 2.335811 15.76121 30.480376
2009-07-23 08:18:19 51°21.246 2°48.16 22.5159 2.335294 15.758542 30.480376
2009-07-23 08:18:24 51°21.258 2°48.144 22.524 2.335604 15.759971 30.480376
2009-07-23 08:18:29 51°21.271 2°48.129 22.5319 2.335604 15.759971 30.480376
2009-07-23 08:18:34 51°21.284 2°48.113 22.5047 2.335398 15.7573 30.480376
2009-07-23 08:18:39 51°21.297 2°48.097 22.5176 2.335294 15.754246 30.445552
2009-07-23 08:18:44 51°21.31 2°48.082 22.5379 2.334881 15.750337 30.480376
2009-07-23 08:18:49 51°21.322 2°48.066 22.5226 2.335397 15.751001 30.480376
2009-07-23 08:18:54 51°21.335 2°48.049 22.5168 2.334674 15.744806 30.480376
2009-07-23 08:18:59 51°21.348 2°48.034 22.5307 2.334674 15.744806 30.480376
2009-07-23 08:19:04 51°21.361 2°48.018 22.5377 2.335087 15.746425 30.445552
2009-07-23 08:19:09 51°21.373 2°48.002 22.5152 2.335501 15.748616 30.480376
2009-07-23 08:19:14 51°21.386 2°47.986 22.521 2.335087 15.742993 30.480376
2009-07-23 08:19:19 51°21.399 2°47.97 22.5204 2.334364 15.737372 30.445552
2009-07-23 08:19:24 51°21.411 2°47.955 22.5109 2.334984 15.742231 30.445552
2009-07-23 08:19:29 51°21.424 2°47.939 22.5235 2.334984 15.742231 30.445552
2009-07-23 08:19:34 51°21.437 2°47.923 22.5335 2.335087 15.742993 30.445552
2009-07-23 08:19:39 51°21.45 2°47.908 22.5319 2.334777 15.741279 30.480376
2009-07-23 08:19:44 51°21.463 2°47.892 22.5281 2.334984 15.742803 30.445552
2009-07-23 08:19:49 51°21.476 2°47.877 22.5249 2.335191 15.742898 30.445552
2009-07-23 08:19:54 51°21.489 2°47.861 22.5256 2.334881 15.739468 30.445552
2009-07-23 08:19:59 51°21.501 2°47.845 22.521 2.334881 15.739468 30.445552
2009-07-23 08:20:04 51°21.514 2°47.83 22.524 2.334881 15.738897 30.445552
2009-07-23 08:20:09 51°21.527 2°47.814 22.5247 2.334777 15.738135 30.445552
2009-07-23 08:20:14 51°21.54 2°47.798 22.5354 2.334777 15.738135 30.445552
2009-07-23 08:20:19 51°21.553 2°47.783 22.5349 2.334984 15.739373 30.445552
2009-07-23 08:20:24 51°21.566 2°47.768 22.5188 2.334777 15.738135 30.445552
2009-07-23 08:20:29 51°21.579 2°47.752 22.5317 2.334777 15.738135 30.445552
2009-07-23 08:20:34 51°21.591 2°47.737 22.5439 2.33395 15.731467 30.445552
2009-07-23 08:20:39 51°21.605 2°47.722 22.5237 2.334467 15.737277 30.410728
2009-07-23 08:20:44 51°21.618 2°47.707 22.5387 2.33426 15.732896 30.445552
2009-07-23 08:20:49 51°21.631 2°47.692 22.5396 2.33457 15.733468 30.410728
2009-07-23 08:20:54 51°21.644 2°47.677 22.5345 2.33426 15.730612 30.410728
2009-07-23 08:20:59 51°21.657 2°47.662 22.5453 2.33426 15.730612 30.410728
2009-07-23 08:21:04 51°21.67 2°47.647 22.5271 2.333744 15.72509 30.410728
2009-07-23 08:21:09 51°21.683 2°47.632 22.5275 2.33426 15.727471 30.410728
2009-07-23 08:21:14 51°21.696 2°47.617 22.539 2.334054 15.725377 30.410728
2009-07-23 08:21:19 51°21.709 2°47.602 22.5382 2.33426 15.727471 30.410728
2009-07-23 08:21:24 51°21.722 2°47.587 22.5312 2.33426 15.726901 30.410728
2009-07-23 08:21:29 51°21.735 2°47.572 22.5503 2.33426 15.726901 30.410728
2009-07-23 08:21:34 51°21.748 2°47.556 22.5482 2.333434 15.722234 30.375904
2009-07-23 08:21:39 51°21.761 2°47.541 22.5568 2.33364 15.725184 30.410728
2009-07-23 08:21:44 51°21.774 2°47.527 22.5499 2.334364 15.733372 30.410728
2009-07-23 08:21:49 51°21.787 2°47.511 22.5513 2.33395 15.73261 30.375904
2009-07-23 08:21:54 51°21.8 2°47.497 22.5468 2.333537 15.731561 30.375904
2009-07-23 08:21:59 51°21.813 2°47.481 22.5494 2.333537 15.731561 30.375904
2009-07-23 08:22:04 51°21.826 2°47.467 22.545 2.333227 15.730418 30.375904
2009-07-23 08:22:09 51°21.839 2°47.452 22.5513 2.333537 15.732133 30.375904
2009-07-23 08:22:14 51°21.852 2°47.437 22.5509 2.333537 15.731847 30.375904
2009-07-23 08:22:19 51°21.865 2°47.422 22.5395 2.333434 15.731085 30.375904
2009-07-23 08:22:24 51°21.878 2°47.407 22.5392 2.333537 15.731847 30.375904
2009-07-23 08:22:29 51°21.891 2°47.392 22.5492 2.333537 15.731847 30.375904
2009-07-23 08:22:34 51°21.904 2°47.377 22.558 2.33333 15.730608 30.375904
2009-07-23 08:22:39 51°21.917 2°47.363 22.5498 2.333227 15.730989 30.375904
2009-07-23 08:22:44 51°21.93 2°47.348 22.5487 2.33364 15.734609 30.375904
2009-07-23 08:22:49 51°21.943 2°47.333 22.5512 2.332917 15.730131 30.375904
2009-07-23 08:22:54 51°21.955 2°47.317 22.5414 2.33333 15.734323 30.34108
2009-07-23 08:22:59 51°21.968 2°47.303 22.5451 2.33333 15.734323 30.34108
2009-07-23 08:23:04 51°21.981 2°47.288 22.5477 2.33302 15.732322 30.375904
2009-07-23 08:23:09 51°21.994 2°47.273 22.5477 2.332814 15.731941 30.34108
2009-07-23 08:23:14 51°22.007 2°47.258 22.5628 2.332814 15.732798 30.375904
2009-07-23 08:23:19 51°22.02 2°47.243 22.5541 2.333124 15.735372 30.34108
2009-07-23 08:23:24 51°22.033 2°47.228 22.5466 2.333021 15.735467 30.34108
2009-07-23 08:23:29 51°22.046 2°47.214 22.5577 2.333021 15.735467 30.34108
2009-07-23 08:23:34 51°22.059 2°47.199 22.5505 2.333021 15.736039 30.34108
2009-07-23 08:23:39 51°22.072 2°47.185 22.5746 2.333021 15.736897 30.34108
2009-07-23 08:23:44 51°22.084 2°47.17 22.5667 2.333124 15.738803 30.34108
2009-07-23 08:23:49 51°22.097 2°47.155 22.5547 2.332711 15.736611 30.34108
2009-07-23 08:23:54 51°22.11 2°47.14 22.5499 2.333021 15.738899 30.34108
2009-07-23 08:23:59 51°22.122 2°47.125 22.5296 2.333021 15.738899 30.34108
2009-07-23 08:24:04 51°22.135 2°47.11 22.5639 2.333124 15.739662 30.34108
2009-07-23 08:24:09 51°22.148 2°47.095 22.5585 2.332607 15.73499 30.34108
2009-07-23 08:24:14 51°22.16 2°47.08 22.5692 2.332401 15.733465 30.34108
2009-07-23 08:24:19 51°22.173 2°47.066 22.5648 2.332814 15.736516 30.306256
2009-07-23 08:24:24 51°22.186 2°47.051 22.5612 2.332194 15.730511 30.34108
2009-07-23 08:24:29 51°22.198 2°47.035 22.5715 2.332194 15.730511 30.34108
2009-07-23 08:24:34 51°22.211 2°47.02 22.5608 2.331884 15.72708 30.306256
2009-07-23 08:24:39 51°22.223 2°47.005 22.5738 2.33209 15.727748 30.34108
2009-07-23 08:24:44 51°22.236 2°46.991 22.5606 2.332194 15.728224 30.306256
2009-07-23 08:24:49 51°22.248 2°46.975 22.5532 2.331677 15.724412 30.306256
2009-07-23 08:24:54 51°22.261 2°46.96 22.576 2.332607 15.730988 30.306256
2009-07-23 08:24:59 51°22.273 2°46.944 22.5602 2.332607 15.730988 30.306256
2009-07-23 08:25:04 51°22.285 2°46.928 22.554 2.332194 15.72851 30.306256
2009-07-23 08:25:09 51°22.297 2°46.913 22.5712 2.332297 15.728987 30.306256
2009-07-23 08:25:14 51°22.309 2°46.897 22.5787 2.33209 15.730606 30.306256
2009-07-23 08:25:19 51°22.322 2°46.883 22.5575 2.33178 15.730606 30.306256
2009-07-23 08:25:24 51°22.334 2°46.868 22.5611 2.331574 15.73051 30.306256
2009-07-23 08:25:29 51°22.346 2°46.853 22.5701 2.331574 15.73051 30.306256
2009-07-23 08:25:34 51°22.359 2°46.838 22.5781 2.331574 15.73194 30.271432
2009-07-23 08:25:39 51°22.371 2°46.824 22.5851 2.331884 15.736231 30.306256
2009-07-23 08:25:44 51°22.383 2°46.809 22.5646 2.331884 15.737662 30.306256
2009-07-23 08:25:49 51°22.396 2°46.794 22.5844 2.331781 15.738044 30.306256
2009-07-23 08:25:54 51°22.408 2°46.779 22.5711 2.331677 15.738999 30.271432
2009-07-23 08:25:59 51°22.42 2°46.764 22.5752 2.331677 15.738999 30.271432
2009-07-23 08:26:04 51°22.433 2°46.749 22.5776 2.331677 15.73814 30.271432
2009-07-23 08:26:09 51°22.445 2°46.733 22.5839 2.331264 15.733943 30.271432
2009-07-23 08:26:14 51°22.458 2°46.718 22.5851 2.331471 15.73461 30.271432
2009-07-23 08:26:19 51°22.47 2°46.703 22.5919 2.331574 15.73337 30.236608
2009-07-23 08:26:24 51°22.482 2°46.687 22.5648 2.331367 15.730701 30.271432
2009-07-23 08:26:29 51°22.495 2°46.672 22.588 2.331367 15.730701 30.271432
2009-07-23 08:26:34 51°22.507 2°46.657 22.5844 2.331367 15.730701 30.236608
2009-07-23 08:26:39 51°22.519 2°46.641 22.5793 2.331264 15.728222 30.271432
2009-07-23 08:26:44 51°22.532 2°46.626 22.5887 2.331057 15.726125 30.236608
2009-07-23 08:26:49 51°22.544 2°46.611 22.5619 2.331057 15.725839 30.236608
2009-07-23 08:26:54 51°22.557 2°46.596 22.5773 2.331057 15.725553 30.236608
2009-07-23 08:26:59 51°22.569 2°46.581 22.5745 2.331057 15.725553 30.236608
2009-07-23 08:27:04 51°22.582 2°46.566 22.5925 2.330954 15.724219 30.236608
2009-07-23 08:27:09 51°22.595 2°46.552 22.5852 2.330954 15.724791 30.236608
2009-07-23 08:27:14 51°22.607 2°46.537 22.5816 2.330747 15.72298 30.236608
2009-07-23 08:27:19 51°22.619 2°46.522 22.591 2.330954 15.725648 30.236608
2009-07-23 08:27:24 51°22.632 2°46.507 22.5889 2.330747 15.725838 30.236608
2009-07-23 08:27:29 51°22.644 2°46.491 22.5891 2.330747 15.725838 30.236608
2009-07-23 08:27:34 51°22.656 2°46.476 22.5642 2.33085 15.727459 30.236608
2009-07-23 08:27:39 51°22.669 2°46.461 22.5952 2.33023 15.72517 30.201784
2009-07-23 08:27:44 51°22.681 2°46.446 22.5875 2.330437 15.728698 30.236608
2009-07-23 08:27:49 51°22.694 2°46.431 22.5948 2.330437 15.730128 30.201784
2009-07-23 08:27:54 51°22.706 2°46.416 22.5768 2.330024 15.728221 30.236608
2009-07-23 08:27:59 51°22.719 2°46.401 22.5964 2.330024 15.728221 30.236608
2009-07-23 08:28:04 51°22.731 2°46.386 22.593 2.330541 15.732895 30.236608
2009-07-23 08:28:09 51°22.744 2°46.371 22.5987 2.330437 15.731559 30.201784
2009-07-23 08:28:14 51°22.756 2°46.356 22.593 2.330334 15.73051 30.236608
2009-07-23 08:28:19 51°22.769 2°46.341 22.5856 2.330127 15.728984 30.236608
2009-07-23 08:28:24 51°22.781 2°46.326 22.5959 2.330024 15.728507 30.201784
2009-07-23 08:28:29 51°22.794 2°46.311 22.6013 2.330024 15.728507 30.201784
2009-07-23 08:28:34 51°22.807 2°46.296 22.595 2.330334 15.731655 30.236608
2009-07-23 08:28:39 51°22.819 2°46.281 22.6039 2.330437 15.73299 30.201784
2009-07-23 08:28:44 51°22.832 2°46.266 22.5897 2.330024 15.731083 30.201784
2009-07-23 08:28:49 51°22.844 2°46.251 22.584 2.32961 15.729461 30.201784
2009-07-23 08:28:54 51°22.857 2°46.236 22.597 2.329611 15.731751 30.201784
2009-07-23 08:28:59 51°22.869 2°46.221 22.5994 2.329611 15.731751 30.201784
2009-07-23 08:29:04 51°22.882 2°46.206 22.5981 2.329921 15.733755 30.201784
2009-07-23 08:29:09 51°22.894 2°46.191 22.6195 2.330231 15.735472 30.201784
2009-07-23 08:29:14 51°22.907 2°46.177 22.5916 2.330024 15.732514 30.201784
2009-07-23 08:29:19 51°22.919 2°46.161 22.6165 2.32992 15.730033 30.201784
2009-07-23 08:29:24 51°22.932 2°46.147 22.5992 2.329714 15.727076 30.16696
2009-07-23 08:29:29 51°22.945 2°46.132 22.5868 2.329714 15.727076 30.16696
2009-07-23 08:29:34 51°22.958 2°46.117 22.617 2.330024 15.729079 30.16696
2009-07-23 08:29:39 51°22.97 2°46.102 22.5964 2.329507 15.72555 30.16696
2009-07-23 08:29:44 51°22.983 2°46.087 22.6068 2.329197 15.723833 30.16696
2009-07-23 08:29:49 51°22.995 2°46.071 22.6089 2.3293 15.724882 30.132136
2009-07-23 08:29:54 51°23.008 2°46.056 22.5847 2.329094 15.723642 30.201784
2009-07-23 08:29:58 51°23.018 2°46.044 22.6122 2.329094 15.723642 30.201784
2009-07-23 08:30:04 51°23.033 2°46.026 22.613 2.329507 15.727267 30.132136
2009-07-23 08:30:09 51°23.045 2°46.011 22.61 2.328577 15.722115 30.16696
2009-07-23 08:30:14 51°23.058 2°45.996 22.6115 2.329094 15.72679 30.16696
2009-07-23 08:30:19 51°23.07 2°45.981 22.604 2.32899 15.726599 30.16696
2009-07-23 08:30:24 51°23.083 2°45.966 22.6138 2.328887 15.725263 30.16696
2009-07-23 08:30:29 51°23.095 2°45.951 22.597 2.328887 15.725263 30.16696
2009-07-23 08:30:34 51°23.107 2°45.936 22.5975 2.32899 15.724595 30.132136
2009-07-23 08:30:39 51°23.12 2°45.921 22.6024 2.328887 15.72326 30.132136
2009-07-23 08:30:44 51°23.132 2°45.905 22.6092 2.328887 15.722402 30.132136
2009-07-23 08:30:49 51°23.144 2°45.889 22.6145 2.32868 15.720017 30.132136
2009-07-23 08:30:54 51°23.157 2°45.874 22.6222 2.327854 15.713627 30.132136
2009-07-23 08:30:58 51°23.166 2°45.861 22.6244 2.327854 15.713627 30.132136
2009-07-23 08:31:04 51°23.181 2°45.844 22.6163 2.328784 15.719922 30.132136
2009-07-23 08:31:09 51°23.193 2°45.828 22.6133 2.328784 15.718778 30.16696
2009-07-23 08:31:14 51°23.206 2°45.813 22.6228 2.328577 15.717824 30.132136
2009-07-23 08:31:18 51°23.216 2°45.801 22.6191 2.32868 15.717729 30.16696
2009-07-23 08:31:22 51°23.226 2°45.788 22.6328 2.328164 15.713057 30.097312
2009-07-23 08:31:29 51°23.243 2°45.766 22.6055 2.328164 15.713057 30.097312
2009-07-23 08:31:34 51°23.255 2°45.75 22.6241 2.328267 15.712677 30.132136
2009-07-23 08:31:38 51°23.265 2°45.738 22.6118 2.328267 15.712677 30.132136
2009-07-23 08:31:43 51°23.277 2°45.722 22.6285 2.327957 15.70896 30.132136
2009-07-23 08:31:49 51°23.292 2°45.704 22.6088 2.327957 15.708103 30.132136
2009-07-23 08:31:54 51°23.304 2°45.689 22.6311 2.328267 15.709534 30.097312
2009-07-23 08:31:59 51°23.316 2°45.674 22.6089 2.328267 15.709534 30.097312
2009-07-23 08:32:04 51°23.329 2°45.659 22.6275 2.32775 15.70772 30.132136
2009-07-23 08:32:08 51°23.339 2°45.647 22.6267 2.32806 15.709437 30.097312
2009-07-23 08:32:14 51°23.353 2°45.628 22.6386 2.328163 15.7082 30.132136
2009-07-23 08:32:19 51°23.366 2°45.614 22.6335 2.32775 15.70572 30.097312
2009-07-23 08:32:24 51°23.378 2°45.598 22.622 2.327957 15.70696 30.097312
2009-07-23 08:32:28 51°23.388 2°45.586 22.6221 2.327957 15.70696 30.097312
2009-07-23 08:32:34 51°23.402 2°45.567 22.6176 2.327957 15.707531 30.097312
2009-07-23 08:32:39 51°23.415 2°45.552 22.637 2.327543 15.704766 30.097312
2009-07-23 08:32:43 51°23.424 2°45.54 22.6331 2.32806 15.708008 30.097312
2009-07-23 08:32:49 51°23.439 2°45.521 22.6204 2.327853 15.704484 30.097312
2009-07-23 08:32:54 51°23.451 2°45.506 22.6157 2.327647 15.702102 30.097312
2009-07-23 08:32:58 51°23.461 2°45.493 22.6342 2.327647 15.702102 30.097312
2009-07-23 08:33:04 51°23.475 2°45.474 22.6224 2.32744 15.700577 30.097312
2009-07-23 08:33:09 51°23.487 2°45.459 22.6244 2.327647 15.702959 30.097312
2009-07-23 08:33:14 51°23.5 2°45.444 22.6258 2.327337 15.701242 30.097312
2009-07-23 08:33:18 51°23.51 2°45.431 22.6491 2.327233 15.700479 30.097312
2009-07-23 08:33:24 51°23.524 2°45.413 22.6252 2.327027 15.700667 30.062488
2009-07-23 08:33:29 51°23.536 2°45.398 22.6298 2.327027 15.700667 30.062488
2009-07-23 08:33:34 51°23.549 2°45.382 22.6255 2.32713 15.70143 30.097312
2009-07-23 08:33:39 51°23.561 2°45.367 22.6228 2.327233 15.701621 30.062488
2009-07-23 08:33:43 51°23.571 2°45.354 22.6297 2.327027 15.700096 30.062488
2009-07-23 08:33:49 51°23.586 2°45.336 22.6296 2.327233 15.701336 30.062488
2009-07-23 08:33:54 51°23.598 2°45.321 22.6308 2.32682 15.698856 30.062488
2009-07-23 08:33:59 51°23.61 2°45.305 22.6443 2.32682 15.698856 30.062488
2009-07-23 08:34:04 51°23.622 2°45.29 22.6494 2.326923 15.701332 30.027664
2009-07-23 08:34:08 51°23.632 2°45.277 22.6237 2.326923 15.701903 30.027664
2009-07-23 08:34:14 51°23.646 2°45.258 22.619 2.326613 15.700471 30.027664
2009-07-23 08:34:19 51°23.658 2°45.243 22.6116 2.32651 15.700851 30.062488
2009-07-23 08:34:24 51°23.671 2°45.227 22.6331 2.326717 15.703519 30.062488
2009-07-23 08:34:29 51°23.683 2°45.212 22.6289 2.326717 15.703519 30.062488
2009-07-23 08:34:34 51°23.695 2°45.196 22.6522 2.3262 15.700276 30.062488
2009-07-23 08:34:39 51°23.707 2°45.181 22.6383 2.32651 15.703422 30.062488
2009-07-23 08:34:44 51°23.719 2°45.165 22.6501 2.326613 15.703613 30.062488
2009-07-23 08:34:49 51°23.732 2°45.15 22.633 2.326613 15.703328 30.027664
2009-07-23 08:34:54 51°23.744 2°45.135 22.6491 2.32651 15.701993 30.027664
2009-07-23 08:34:59 51°23.756 2°45.119 22.6346 2.32651 15.701993 30.027664
2009-07-23 08:35:04 51°23.768 2°45.103 22.6445 2.326097 15.699799 30.027664
2009-07-23 08:35:09 51°23.78 2°45.087 22.6501 2.326407 15.702945 30.027664
2009-07-23 08:35:14 51°23.793 2°45.072 22.633 2.326407 15.70323 30.027664
2009-07-23 08:35:19 51°23.805 2°45.056 22.6597 2.3262 15.703419 30.027664
2009-07-23 08:35:24 51°23.817 2°45.042 22.6426 2.3262 15.703133 30.027664
2009-07-23 08:35:29 51°23.829 2°45.026 22.6229 2.3262 15.703133 30.027664
2009-07-23 08:35:34 51°23.842 2°45.011 22.6203 2.326407 15.703802 30.027664
2009-07-23 08:35:38 51°23.852 2°44.999 22.5805 2.32589 15.698273 30.027664
2009-07-23 08:35:44 51°23.867 2°44.983 22.6126 2.32527 15.69598 30.027664
2009-07-23 08:35:49 51°23.88 2°44.973 22.6145 2.325787 15.701509 30.062488
2009-07-23 08:35:54 51°23.893 2°44.966 22.6207 2.32527 15.698265 30.062488
2009-07-23 08:35:58 51°23.904 2°44.962 22.6175 2.32527 15.698265 30.062488
2009-07-23 08:36:04 51°23.92 2°44.96 22.6302 2.32527 15.699408 30.062488
2009-07-23 08:36:09 51°23.933 2°44.961 22.6393 2.324753 15.697592 30.062488
2009-07-23 08:36:14 51°23.946 2°44.964 22.6403 2.326304 15.70847 30.027664
2009-07-23 08:36:18 51°23.956 2°44.967 22.6256 2.32496 15.696833 30.062488
2009-07-23 08:36:24 51°23.971 2°44.972 22.6679 2.326613 15.708186 29.99284
2009-07-23 08:36:28 51°23.981 2°44.977 22.6194 2.326613 15.708186 29.99284
2009-07-23 08:36:34 51°23.997 2°44.982 22.6545 2.324443 15.690733 30.027664
2009-07-23 08:36:39 51°24.009 2°44.991 22.6442 2.326303 15.703896 30.027664
2009-07-23 08:36:44 51°24.022 2°44.995 22.6531 2.32558 15.698269 30.027664
2009-07-23 08:36:49 51°24.035 2°45.004 22.6326 2.325993 15.700464 30.027664
2009-07-23 08:36:54 51°24.048 2°45.01 22.6445 2.325683 15.697889 30.062488
2009-07-23 08:36:59 51°24.06 2°45.019 22.6443 2.325683 15.697889 30.062488
2009-07-23 08:37:04 51°24.073 2°45.026 22.6549 2.325373 15.695315 30.027664
2009-07-23 08:37:09 51°24.086 2°45.035 22.638 2.325373 15.694173 30.027664
2009-07-23 08:37:14 51°24.098 2°45.043 22.6574 2.325373 15.693031 30.027664
2009-07-23 08:37:19 51°24.111 2°45.052 22.6478 2.32496 15.690836 30.027664
2009-07-23 08:37:24 51°24.123 2°45.06 22.6638 2.32527 15.697122 29.99284
2009-07-23 08:37:29 51°24.136 2°45.07 22.651 2.32527 15.697122 29.99284
2009-07-23 08:37:34 51°24.148 2°45.078 22.6542 2.324857 15.697784 29.99284
2009-07-23 08:37:38 51°24.158 2°45.086 22.6458 2.32496 15.702263 30.027664
2009-07-23 08:37:44 51°24.173 2°45.097 22.6452 2.325167 15.70665 29.99284
2009-07-23 08:37:49 51°24.185 2°45.106 22.6654 2.32465 15.704834 29.99284
2009-07-23 08:37:54 51°24.198 2°45.115 22.6742 2.325167 15.709511 29.99284
2009-07-23 08:37:58 51°24.208 2°45.123 22.6415 2.325167 15.709511 29.99284
2009-07-23 08:38:04 51°24.223 2°45.134 22.6265 2.32496 15.707984 29.99284
2009-07-23 08:38:09 51°24.235 2°45.144 22.6363 2.323617 15.695483 29.99284
2009-07-23 08:38:14 51°24.247 2°45.155 22.6632 2.324857 15.708651 29.99284
2009-07-23 08:38:18 51°24.255 2°45.165 22.6376 2.32403 15.701397 29.99284
2009-07-23 08:38:24 51°24.269 2°45.179 22.656 2.324857 15.706648 29.99284
2009-07-23 08:38:29 51°24.279 2°45.194 22.6671 2.324857 15.706648 29.99284
2009-07-23 08:38:34 51°24.29 2°45.207 22.6511 2.32434 15.702258 29.99284
2009-07-23 08:38:38 51°24.298 2°45.219 22.6716 2.32465 15.70369 29.99284
2009-07-23 08:38:44 51°24.31 2°45.236 22.6638 2.324753 15.703882 29.99284
2009-07-23 08:38:49 51°24.319 2°45.252 22.6479 2.324547 15.700067 29.99284
2009-07-23 08:38:54 51°24.329 2°45.267 22.6727 2.32496 15.700262 29.958016
2009-07-23 08:38:59 51°24.339 2°45.283 22.6476 2.32496 15.700262 29.958016
2009-07-23 08:39:04 51°24.348 2°45.298 22.6836 2.323823 15.691009 29.99284
2009-07-23 08:39:09 51°24.357 2°45.315 22.663 2.324753 15.697592 29.958016
2009-07-23 08:39:14 51°24.367 2°45.33 22.6534 2.324237 15.69349 29.958016
2009-07-23 08:39:19 51°24.376 2°45.346 22.6298 2.324443 15.695017 29.958016
2009-07-23 08:39:24 51°24.385 2°45.363 22.657 2.323513 15.689576 29.958016
2009-07-23 08:39:29 51°24.393 2°45.38 22.6714 2.323513 15.689576 29.958016
2009-07-23 08:39:34 51°24.401 2°45.398 22.6681 2.32372 15.693102 29.958016
2009-07-23 08:39:39 51°24.409 2°45.416 22.662 2.32372 15.693674 29.958016
2009-07-23 08:39:44 51°24.416 2°45.434 22.6866 2.324237 15.697205 29.958016
2009-07-23 08:39:49 51°24.423 2°45.453 22.662 2.3231 15.689094 29.958016
2009-07-23 08:39:54 51°24.43 2°45.472 22.6894 2.324133 15.696156 29.923192
2009-07-23 08:39:59 51°24.436 2°45.491 22.6529 2.324133 15.696156 29.923192
2009-07-23 08:40:04 51°24.443 2°45.509 22.7005 2.3231 15.689094 29.923192
2009-07-23 08:40:09 51°24.449 2°45.529 22.6498 2.324443 15.698732 29.888367
2009-07-23 08:40:14 51°24.457 2°45.547 22.682 2.32279 15.687375 29.923192
2009-07-23 08:40:18 51°24.462 2°45.563 22.6748 2.32372 15.695961 29.923192
2009-07-23 08:40:24 51°24.469 2°45.585 22.6797 2.323307 15.692907 29.923192
2009-07-23 08:40:29 51°24.476 2°45.605 22.6759 2.323307 15.692907 29.923192
2009-07-23 08:40:34 51°24.482 2°45.624 22.6849 2.323513 15.693576 29.923192
2009-07-23 08:40:39 51°24.488 2°45.643 22.6835 2.322997 15.690902 29.923192
2009-07-23 08:40:44 51°24.494 2°45.663 22.6955 2.323513 15.694434 29.888367
2009-07-23 08:40:49 51°24.501 2°45.683 22.6678 2.32341 15.693098 29.923192
2009-07-23 08:40:54 51°24.507 2°45.702 22.6831 2.323617 15.69434 29.888367
2009-07-23 08:40:59 51°24.513 2°45.722 22.6819 2.323617 15.69434 29.888367
2009-07-23 08:41:04 51°24.519 2°45.742 22.6693 2.323307 15.692621 29.888367
2009-07-23 08:41:09 51°24.525 2°45.762 22.6951 2.32341 15.693956 29.888367
2009-07-23 08:41:14 51°24.531 2°45.782 22.6778 2.323307 15.694336 29.888367
2009-07-23 08:41:19 51°24.537 2°45.801 22.6825 2.322273 15.687558 29.853543
2009-07-23 08:41:24 51°24.544 2°45.821 22.6864 2.32341 15.697959 29.888367
2009-07-23 08:41:29 51°24.55 2°45.84 22.6906 2.32341 15.697959 29.888367
2009-07-23 08:41:34 51°24.557 2°45.859 22.7084 2.323307 15.698339 29.853543
2009-07-23 08:41:39 51°24.565 2°45.878 22.7076 2.322687 15.696044 29.888367
2009-07-23 08:41:44 51°24.572 2°45.896 22.688 2.323307 15.700341 29.853543
2009-07-23 08:41:49 51°24.58 2°45.914 22.7025 2.322377 15.693467 29.853543
2009-07-23 08:41:54 51°24.588 2°45.932 22.7054 2.322997 15.69805 29.818719
2009-07-23 08:41:59 51°24.596 2°45.949 22.6844 2.322997 15.69805 29.818719
2009-07-23 08:42:04 51°24.604 2°45.967 22.6977 2.322687 15.696617 29.853543
2009-07-23 08:42:09 51°24.612 2°45.985 22.6812 2.322893 15.699003 29.818719
2009-07-23 08:42:14 51°24.621 2°46.002 22.6837 2.32248 15.696233 29.818719
2009-07-23 08:42:19 51°24.629 2°46.019 22.7095 2.322687 15.698333 29.818719
2009-07-23 08:42:24 51°24.638 2°46.037 22.7054 2.32186 15.693652 29.818719
2009-07-23 08:42:29 51°24.647 2°46.054 22.6942 2.32186 15.693652 29.818719
2009-07-23 08:42:34 51°24.655 2°46.071 22.6818 2.32279 15.7011 29.818719
2009-07-23 08:42:38 51°24.662 2°46.085 22.7005 2.32248 15.699381 29.818719
2009-07-23 08:42:44 51°24.672 2°46.106 22.7124 2.32186 15.696227 29.818719
2009-07-23 08:42:49 51°24.681 2°46.123 22.6845 2.32217 15.698806 29.818719
2009-07-23 08:42:54 51°24.689 2°46.14 22.7082 2.322273 15.69957 29.818719
2009-07-23 08:42:58 51°24.696 2°46.154 22.7012 2.322273 15.69957 29.818719
2009-07-23 08:43:04 51°24.706 2°46.175 22.7109 2.32186 15.696227 29.818719
2009-07-23 08:43:09 51°24.714 2°46.192 22.6965 2.32248 15.699667 29.783895
2009-07-23 08:43:14 51°24.723 2°46.209 22.705 2.32248 15.698522 29.783895
2009-07-23 08:43:18 51°24.73 2°46.223 22.7014 2.32217 15.695658 29.783895
2009-07-23 08:43:23 51°24.738 2°46.24 22.7081 2.32186 15.693938 29.783895
2009-07-23 08:43:29 51°24.749 2°46.26 22.7205 2.32186 15.693938 29.783895
2009-07-23 08:43:34 51°24.757 2°46.277 22.7009 2.322067 15.694894 29.783895
2009-07-23 08:43:39 51°24.766 2°46.293 22.7166 2.322067 15.694036 29.783895
2009-07-23 08:43:44 51°24.775 2°46.31 22.7104 2.321963 15.6927 29.783895
2009-07-23 08:43:49 51°24.783 2°46.327 22.7198 2.321653 15.69098 29.783895
2009-07-23 08:43:54 51°24.792 2°46.345 22.7218 2.32186 15.692222 29.749071
2009-07-23 08:43:59 51°24.801 2°46.361 22.69 2.32186 15.692222 29.749071
2009-07-23 08:44:04 51°24.809 2°46.379 22.6938 2.32217 15.692797 29.749071
2009-07-23 08:44:09 51°24.818 2°46.396 22.705 2.321033 15.684109 29.783895
2009-07-23 08:44:14 51°24.826 2°46.414 22.7166 2.322273 15.694705 29.783895
2009-07-23 08:44:19 51°24.833 2°46.432 22.6769 2.32186 15.69165 29.783895
2009-07-23 08:44:24 51°24.842 2°46.45 22.7156 2.321653 15.69241 29.749071
2009-07-23 08:44:29 51°24.849 2°46.468 22.6934 2.321653 15.69241 29.749071
2009-07-23 08:44:34 51°24.857 2°46.486 22.7208 2.321447 15.692026 29.749071
2009-07-23 08:44:38 51°24.862 2°46.501 22.725 2.321343 15.692693 29.749071
2009-07-23 08:44:44 51°24.871 2°46.524 22.717 2.32124 15.693359 29.749071
2009-07-23 08:44:49 51°24.878 2°46.542 22.7315 2.32093 15.691353 29.749071
2009-07-23 08:44:54 51°24.886 2°46.56 22.7086 2.32155 15.697083 29.749071
2009-07-23 08:44:59 51°24.893 2°46.579 22.711 2.32155 15.697083 29.749071
2009-07-23 08:45:04 51°24.901 2°46.598 22.6932 2.322067 15.699759 29.714247
2009-07-23 08:45:09 51°24.908 2°46.616 22.7263 2.32124 15.693359 29.749071
2009-07-23 08:45:14 51°24.915 2°46.636 22.7053 2.32155 15.695938 29.714247
2009-07-23 08:45:19 51°24.922 2°46.654 22.7006 2.321137 15.691451 29.714247
2009-07-23 08:45:24 51°24.929 2°46.673 22.7017 2.320517 15.686294 29.714247
2009-07-23 08:45:29 51°24.936 2°46.691 22.7163 2.320517 15.686294 29.714247
2009-07-23 08:45:34 51°24.943 2°46.71 22.7172 2.321343 15.692407 29.749071
2009-07-23 08:45:38 51°24.949 2°46.725 22.7304 2.320413 15.685244 29.714247
2009-07-23 08:45:44 51°24.957 2°46.748 22.7273 2.32124 15.69107 29.714247
2009-07-23 08:45:49 51°24.965 2°46.767 22.7223 2.32124 15.690498 29.714247
2009-07-23 08:45:54 51°24.972 2°46.786 22.7237 2.320827 15.686584 29.714247
2009-07-23 08:45:59 51°24.98 2°46.804 22.7206 2.320827 15.686584 29.714247
2009-07-23 08:46:04 51°24.987 2°46.824 22.7332 2.32093 15.687634 29.714247
2009-07-23 08:46:09 51°24.994 2°46.843 22.7284 2.320827 15.687156 29.679423
2009-07-23 08:46:14 51°25.001 2°46.862 22.7314 2.32062 15.685628 29.714247
2009-07-23 08:46:19 51°25.008 2°46.881 22.7361 2.319897 15.68171 29.714247
2009-07-23 08:46:24 51°25.015 2°46.9 22.7234 2.320827 15.6883 29.679423
2009-07-23 08:46:29 51°25.022 2°46.919 22.7238 2.320827 15.6883 29.679423
2009-07-23 08:46:34 51°25.029 2°46.938 22.7145 2.320827 15.687728 29.679423
2009-07-23 08:46:39 51°25.036 2°46.958 22.7314 2.320827 15.687156 29.679423
2009-07-23 08:46:44 51°25.043 2°46.977 22.7006 2.320827 15.687156 29.679423
2009-07-23 08:46:49 51°25.05 2°46.996 22.7288 2.319587 15.677988 29.679423
2009-07-23 08:46:54 51°25.057 2°47.016 22.7136 2.320517 15.684292 29.679423
2009-07-23 08:46:58 51°25.062 2°47.031 22.7444 2.320517 15.684292 29.679423
2009-07-23 08:47:04 51°25.071 2°47.055 22.736 2.32 15.68133 29.679423
2009-07-23 08:47:09 51°25.078 2°47.074 22.7317 2.320517 15.68515 29.679423
2009-07-23 08:47:14 51°25.086 2°47.093 22.7436 2.320517 15.68515 29.679423
2009-07-23 08:47:19 51°25.093 2°47.112 22.7435 2.32031 15.68305 29.679423
2009-07-23 08:47:24 51°25.1 2°47.131 22.7471 2.320413 15.683814 29.644599
2009-07-23 08:47:29 51°25.106 2°47.151 22.7196 2.320413 15.683814 29.644599
2009-07-23 08:47:34 51°25.113 2°47.17 22.7234 2.320207 15.682286 29.679423
2009-07-23 08:47:39 51°25.121 2°47.189 22.7067 2.320517 15.684006 29.644599
2009-07-23 08:47:44 51°25.128 2°47.208 22.739 2.319483 15.676367 29.679423